
Distance (Route):
Temperature : -23.7°C
Humidity : 1.9%
Pressure : 347.8hPa| Receiver | Frames | First received | Last received |
|---|---|---|---|
| PU1XMG-16 | 603 | 2026-09-02 11:31:36 | 2026-09-02 13:00:25 |
| Receiver | Date | Latitude | Longitude | Direction | Speed | Altitude | Climb | Temperature | Humidity | Pressure | Voltage | Killtimer | Uptime | BKT | XDATA |
|---|---|---|---|---|---|---|---|---|---|---|---|---|---|---|---|
| PU1XMG-16 | 2026-09-02 13:00:25 | -22.68651 | -42.03418 | 82° | 122km/h | 8535m | -8.8m/s | -23.7°C | 1.9% | 347.8hPa | 0V | 00:00:00 | 00:00:00 | 00:00:00 | |
| PU1XMG-16 | 2026-09-02 13:00:16 | -22.68691 | -42.03718 | 82° | 126km/h | 8615m | -9.7m/s | -24.1°C | 1.9% | 344.1hPa | 0V | 00:00:00 | 00:00:00 | 00:00:00 | |
| PU1XMG-16 | 2026-09-02 12:58:27 | -22.69955 | -42.08081 | 74° | 172km/h | 9626m | -9.6m/s | -27.7°C | 3.6% | 299.3hPa | 0V | 00:00:00 | 00:00:00 | 00:00:00 | |
| PU1XMG-16 | 2026-09-02 12:58:21 | -22.70015 | -42.08306 | 75° | 172km/h | 9675m | -9.7m/s | -28.1°C | 3.8% | 297.4hPa | 0V | 00:00:00 | 00:00:00 | 00:00:00 | |
| PU1XMG-16 | 2026-09-02 12:58:06 | -22.70192 | -42.09030 | 77° | 170km/h | 9835m | -10.5m/s | -29.4°C | 4.3% | 290.8hPa | 0V | 00:00:00 | 00:00:00 | 00:00:00 | |
| PU1XMG-16 | 2026-09-02 12:58:00 | -22.70243 | -42.09254 | 77° | 170km/h | 9885m | -10.5m/s | -29.8°C | 3.9% | 288.8hPa | 0V | 00:00:00 | 00:00:00 | 00:00:00 | |
| PU1XMG-16 | 2026-09-02 12:57:53 | -22.70314 | -42.09566 | 77° | 166km/h | 9957m | -10.9m/s | -30.4°C | 3.4% | 285.9hPa | 0V | 00:00:00 | 00:00:00 | 00:00:00 | |
| PU1XMG-16 | 2026-09-02 12:57:47 | -22.70374 | -42.09834 | 77° | 166km/h | 10018m | -10.3m/s | -30.9°C | 3.3% | 283.4hPa | 0V | 00:00:00 | 00:00:00 | 00:00:00 | |
| PU1XMG-16 | 2026-09-02 12:57:42 | -22.70434 | -42.10102 | 78° | 168km/h | 10080m | -10.7m/s | -31.5°C | 3.4% | 280.9hPa | 0V | 00:00:00 | 00:00:00 | 00:00:00 | |
| PU1XMG-16 | 2026-09-02 12:55:31 | -22.71656 | -42.15853 | 75° | 162km/h | 11525m | -11.4m/s | -44.5°C | 4.7% | 227.8hPa | 0V | 00:00:00 | 00:00:00 | 00:00:00 | |
| PU1XMG-16 | 2026-09-02 12:55:24 | -22.71737 | -42.16152 | 74° | 164km/h | 11605m | -11.4m/s | -45.0°C | 4.8% | 225.1hPa | 0V | 00:00:00 | 00:00:00 | 00:00:00 | |
| PU1XMG-16 | 2026-09-02 12:55:07 | -22.71923 | -42.16833 | 75° | 161km/h | 11790m | -12.0m/s | -46.3°C | 4.7% | 219.0hPa | 0V | 00:00:00 | 00:00:00 | 00:00:00 | |
| PU1XMG-16 | 2026-09-02 12:54:52 | -22.72094 | -42.17474 | 76° | 162km/h | 11965m | -11.8m/s | -47.5°C | 4.9% | 213.3hPa | 0V | 00:00:00 | 00:00:00 | 00:00:00 | |
| PU1XMG-16 | 2026-09-02 12:54:39 | -22.72227 | -42.18025 | 78° | 157km/h | 12120m | -12.4m/s | -48.7°C | 5.2% | 208.3hPa | 0V | 00:00:00 | 00:00:00 | 00:00:00 | |
| PU1XMG-16 | 2026-09-02 12:54:32 | -22.72286 | -42.18315 | 79° | 153km/h | 12204m | -12.3m/s | -49.3°C | 5.4% | 205.7hPa | 0V | 00:00:00 | 00:00:00 | 00:00:00 | |
| PU1XMG-16 | 2026-09-02 12:54:27 | -22.72332 | -42.18561 | 80° | 153km/h | 12276m | -12.5m/s | -49.7°C | 5.5% | 203.5hPa | 0V | 00:00:00 | 00:00:00 | 00:00:00 | |
| PU1XMG-16 | 2026-09-02 12:54:21 | -22.72376 | -42.18810 | 81° | 155km/h | 12349m | -12.0m/s | -50.4°C | 5.8% | 201.2hPa | 0V | 00:00:00 | 00:00:00 | 00:00:00 | |
| PU1XMG-16 | 2026-09-02 12:54:04 | -22.72470 | -42.19483 | 84° | 155km/h | 12541m | -12.4m/s | -52.2°C | 6.3% | 195.4hPa | 0V | 00:00:00 | 00:00:00 | 00:00:00 | |
| PU1XMG-16 | 2026-09-02 12:53:58 | -22.72498 | -42.19737 | 84° | 157km/h | 12615m | -12.4m/s | -52.8°C | 6.3% | 193.2hPa | 0V | 00:00:00 | 00:00:00 | 00:00:00 | |
| PU1XMG-16 | 2026-09-02 12:53:49 | -22.72549 | -42.20162 | 83° | 155km/h | 12739m | -12.6m/s | -53.8°C | 6.6% | 189.5hPa | 0V | 00:00:00 | 00:00:00 | 00:00:00 | |
| PU1XMG-16 | 2026-09-02 12:52:22 | -22.73069 | -42.23905 | 80° | 162km/h | 13855m | -13.5m/s | -62.2°C | 7.8% | 158.8hPa | 0V | 00:00:00 | 00:00:00 | 00:00:00 | |
| PU1XMG-16 | 2026-09-02 12:52:15 | -22.73123 | -42.24210 | 79° | 162km/h | 13949m | -13.5m/s | -62.8°C | 7.5% | 156.5hPa | 0V | 00:00:00 | 00:00:00 | 00:00:00 | |
| PU1XMG-16 | 2026-09-02 12:52:06 | -22.73199 | -42.24560 | 76° | 166km/h | 14056m | -13.8m/s | -63.3°C | 6.5% | 153.8hPa | 0V | 00:00:00 | 00:00:00 | 00:00:00 | |
| PU1XMG-16 | 2026-09-02 12:52:00 | -22.73270 | -42.24819 | 74° | 164km/h | 14137m | -13.9m/s | -63.0°C | 5.7% | 151.8hPa | 0V | 00:00:00 | 00:00:00 | 00:00:00 | |
| PU1XMG-16 | 2026-09-02 12:51:55 | -22.73344 | -42.25070 | 73° | 157km/h | 14220m | -14.0m/s | -63.2°C | 5.4% | 149.7hPa | 0V | 00:00:00 | 00:00:00 | 00:00:00 | |
| PU1XMG-16 | 2026-09-02 12:51:04 | -22.74053 | -42.26741 | 64° | 108km/h | 14925m | -14.4m/s | -64.5°C | 6.4% | 133.5hPa | 0V | 00:00:00 | 00:00:00 | 00:00:00 | |
| PU1XMG-16 | 2026-09-02 12:50:56 | -22.74154 | -42.26970 | 68° | 97km/h | 15055m | -14.9m/s | -65.3°C | 7.0% | 130.7hPa | 0V | 00:00:00 | 00:00:00 | 00:00:00 | |
| PU1XMG-16 | 2026-09-02 12:50:49 | -22.74209 | -42.27140 | 74° | 89km/h | 15157m | -14.8m/s | -65.9°C | 7.2% | 128.6hPa | 0V | 00:00:00 | 00:00:00 | 00:00:00 | |
| PU1XMG-16 | 2026-09-02 12:50:43 | -22.74238 | -42.27279 | 81° | 86km/h | 15245m | -15.1m/s | -66.0°C | 7.2% | 126.7hPa | 0V | 00:00:00 | 00:00:00 | 00:00:00 | |
| PU1XMG-16 | 2026-09-02 12:44:34 | -22.73672 | -42.32409 | 6° | 18km/h | 22679m | -28.3m/s | -58.2°C | 1.5% | 37.7hPa | 0V | 00:00:00 | 00:00:00 | 00:00:00 | |
| PU1XMG-16 | 2026-09-02 12:44:25 | -22.73719 | -42.32406 | 344° | 24km/h | 22930m | -28.1m/s | -58.5°C | 1.5% | 36.2hPa | 0V | 00:00:00 | 00:00:00 | 00:00:00 | |
| PU1XMG-16 | 2026-09-02 12:44:18 | -22.73751 | -42.32386 | 297° | 18km/h | 23125m | -28.5m/s | -59.2°C | 1.7% | 35.1hPa | 0V | 00:00:00 | 00:00:00 | 00:00:00 | |
| PU1XMG-16 | 2026-09-02 12:44:11 | -22.73756 | -42.32364 | 281° | 11km/h | 23324m | -28.9m/s | -59.4°C | 1.9% | 34.0hPa | 0V | 08:29:00 | 00:00:00 | 00:00:00 | |
| PU1XMG-16 | 2026-09-02 12:43:21 | -22.73740 | -42.32490 | 45° | 16km/h | 24818m | -32.4m/s | -55.4°C | 1.4% | 26.9hPa | 0V | 08:29:00 | 00:00:00 | 00:00:00 | |
| PU1XMG-16 | 2026-09-02 12:43:11 | -22.73769 | -42.32505 | 359° | 9km/h | 25143m | -32.9m/s | -55.8°C | 1.4% | 25.5hPa | 0V | 00:00:00 | 00:00:00 | 00:00:00 | |
| PU1XMG-16 | 2026-09-02 12:43:05 | -22.73776 | -42.32505 | 88° | 2km/h | 25340m | -33.8m/s | -55.8°C | 1.5% | 24.7hPa | 0V | 00:00:00 | 00:00:00 | 00:00:00 | |
| PU1XMG-16 | 2026-09-02 12:42:59 | -22.73776 | -42.32514 | 86° | 11km/h | 25544m | -34.2m/s | -54.4°C | 1.4% | 23.9hPa | 0V | 00:00:00 | 00:00:00 | 00:00:00 | |
| PU1XMG-16 | 2026-09-02 12:42:53 | -22.73770 | -42.32536 | 115° | 15km/h | 25750m | -34.9m/s | -53.7°C | 1.4% | 23.2hPa | 0V | 00:00:00 | 00:00:00 | 00:00:00 | |
| PU1XMG-16 | 2026-09-02 12:42:47 | -22.73755 | -42.32560 | 120° | 24km/h | 25958m | -35.0m/s | -53.0°C | 1.4% | 22.4hPa | 0V | 00:00:00 | 00:00:00 | 00:00:00 | |
| PU1XMG-16 | 2026-09-02 12:42:42 | -22.73730 | -42.32598 | 126° | 31km/h | 26167m | -35.1m/s | -51.4°C | 1.2% | 21.7hPa | 0V | 00:00:00 | 00:00:00 | 00:00:00 | |
| PU1XMG-16 | 2026-09-02 12:42:34 | -22.73707 | -42.32662 | 103° | 38km/h | 26416m | -36.7m/s | -49.1°C | 1.0% | 20.9hPa | 0V | 00:00:00 | 00:00:00 | 00:00:00 | |
| PU1XMG-16 | 2026-09-02 12:42:29 | -22.73694 | -42.32726 | 106° | 40km/h | 26634m | -36.9m/s | -47.8°C | 0.9% | 20.2hPa | 0V | 00:00:00 | 00:00:00 | 00:00:00 | |
| PU1XMG-16 | 2026-09-02 12:42:21 | -22.73686 | -42.32816 | 85° | 51km/h | 26879m | -33.7m/s | -47.6°C | 0.9% | 19.4hPa | 0V | 00:00:00 | 00:00:00 | 00:00:00 | |
| PU1XMG-16 | 2026-09-02 12:42:16 | -22.73693 | -42.32877 | 84° | 40km/h | 27023m | -13.6m/s | -47.9°C | 1.0% | 18.9hPa | 0V | 00:00:00 | 00:00:00 | 00:00:00 | |
| PU1XMG-16 | 2026-09-02 12:42:08 | -22.73699 | -42.32968 | 96° | 44km/h | 26994m | 8.7m/s | -47.8°C | 1.0% | 18.9hPa | 0V | 00:00:00 | 00:00:00 | 00:00:00 | |
| PU1XMG-16 | 2026-09-02 12:42:02 | -22.73696 | -42.33043 | 87° | 47km/h | 26955m | 7.0m/s | -47.6°C | 1.0% | 19.0hPa | 0V | 00:00:00 | 00:00:00 | 00:00:00 | |
| PU1XMG-16 | 2026-09-02 12:41:56 | -22.73698 | -42.33117 | 92° | 44km/h | 26914m | 8.3m/s | -47.7°C | 1.0% | 19.2hPa | 0V | 00:00:00 | 00:00:00 | 00:00:00 | |
| PU1XMG-16 | 2026-09-02 12:41:50 | -22.73695 | -42.33191 | 95° | 49km/h | 26876m | 5.5m/s | -47.8°C | 1.0% | 19.3hPa | 0V | 00:00:00 | 00:00:00 | 00:00:00 | |
| PU1XMG-16 | 2026-09-02 12:41:44 | -22.73690 | -42.33264 | 100° | 51km/h | 26838m | 5.5m/s | -47.8°C | 1.0% | 19.4hPa | 0V | 00:00:00 | 00:00:00 | 00:00:00 | |
| PU1XMG-16 | 2026-09-02 12:41:39 | -22.73676 | -42.33325 | 106° | 44km/h | 26807m | 5.9m/s | -47.9°C | 0.9% | 19.5hPa | 0V | 00:00:00 | 00:00:00 | 00:00:00 | |
| PU1XMG-16 | 2026-09-02 12:41:33 | -22.73668 | -42.33394 | 99° | 37km/h | 26767m | 6.4m/s | -48.0°C | 0.9% | 19.6hPa | 0V | 00:00:00 | 00:00:00 | 00:00:00 | |
| PU1XMG-16 | 2026-09-02 12:41:28 | -22.73647 | -42.33461 | 122° | 40km/h | 26728m | 6.4m/s | -47.9°C | 0.9% | 19.7hPa | 0V | 00:00:00 | 00:00:00 | 00:00:00 | |
| PU1XMG-16 | 2026-09-02 12:40:22 | -22.73456 | -42.34084 | 137° | 29km/h | 26288m | 5.4m/s | -51.3°C | 1.1% | 21.1hPa | 0V | 00:00:00 | 00:00:00 | 00:00:00 | |
| PU1XMG-16 | 2026-09-02 12:40:17 | -22.73440 | -42.34120 | 103° | 27km/h | 26253m | 5.5m/s | -51.5°C | 1.1% | 21.2hPa | 0V | 00:00:00 | 00:00:00 | 00:00:00 | |
| PU1XMG-16 | 2026-09-02 12:40:08 | -22.73427 | -42.34182 | 119° | 26km/h | 26190m | 6.9m/s | -51.6°C | 1.1% | 21.4hPa | 0V | 00:00:00 | 00:00:00 | 00:00:00 | |
| PU1XMG-16 | 2026-09-02 12:40:03 | -22.73415 | -42.34208 | 107° | 26km/h | 26155m | 7.7m/s | -52.1°C | 1.1% | 21.5hPa | 0V | 00:00:00 | 00:00:00 | 00:00:00 | |
| PU1XMG-16 | 2026-09-02 12:39:53 | -22.73375 | -42.34268 | 145° | 31km/h | 26086m | 5.8m/s | -52.5°C | 1.1% | 21.8hPa | 0V | 00:00:00 | 00:00:00 | 00:00:00 | |
| PU1XMG-16 | 2026-09-02 12:39:48 | -22.73343 | -42.34296 | 143° | 29km/h | 26054m | 7.4m/s | -52.6°C | 1.1% | 21.9hPa | 0V | 00:00:00 | 00:00:00 | 00:00:00 | |
| PU1XMG-16 | 2026-09-02 12:39:43 | -22.73319 | -42.34315 | 135° | 22km/h | 26020m | 5.3m/s | -52.9°C | 1.1% | 22.0hPa | 0V | 00:00:00 | 00:00:00 | 00:00:00 | |
| PU1XMG-16 | 2026-09-02 12:39:38 | -22.73301 | -42.34332 | 138° | 24km/h | 25984m | 7.8m/s | -53.0°C | 1.2% | 22.2hPa | 0V | 00:00:00 | 00:00:00 | 00:00:00 | |
| PU1XMG-16 | 2026-09-02 12:39:33 | -22.73280 | -42.34348 | 153° | 16km/h | 25950m | 6.4m/s | -53.1°C | 1.1% | 22.3hPa | 0V | 00:00:00 | 00:00:00 | 00:00:00 | |
| PU1XMG-16 | 2026-09-02 12:39:28 | -22.73259 | -42.34363 | 166° | 11km/h | 25910m | 4.8m/s | -53.8°C | 1.2% | 22.4hPa | 0V | 00:00:00 | 00:00:00 | 00:00:00 | |
| PU1XMG-16 | 2026-09-02 12:38:43 | -22.73184 | -42.34535 | 155° | 13km/h | 25612m | 5.7m/s | -54.0°C | 1.2% | 23.5hPa | 0V | 00:00:00 | 00:00:00 | 00:00:00 | |
| PU1XMG-16 | 2026-09-02 12:38:37 | -22.73173 | -42.34553 | 85° | 20km/h | 25574m | 5.6m/s | -54.3°C | 1.3% | 23.6hPa | 0V | 00:00:00 | 00:00:00 | 00:00:00 | |
| PU1XMG-16 | 2026-09-02 12:38:31 | -22.73177 | -42.34571 | 64° | 7km/h | 25535m | 5.7m/s | -54.5°C | 1.3% | 23.8hPa | 0V | 00:00:00 | 00:00:00 | 00:00:00 | |
| PU1XMG-16 | 2026-09-02 12:38:25 | -22.73176 | -42.34571 | 63° | 4km/h | 25496m | 5.4m/s | -54.5°C | 1.3% | 23.9hPa | 0V | 00:00:00 | 00:00:00 | 00:00:00 | |
| PU1XMG-16 | 2026-09-02 12:38:18 | -22.73175 | -42.34581 | 143° | 5km/h | 25449m | 8.0m/s | -54.9°C | 1.3% | 24.1hPa | 0V | 00:00:00 | 00:00:00 | 00:00:00 | |
| PU1XMG-16 | 2026-09-02 12:38:13 | -22.73173 | -42.34584 | 65° | 9km/h | 25417m | 4.7m/s | -55.6°C | 1.3% | 24.2hPa | 0V | 00:00:00 | 00:00:00 | 00:00:00 | |
| PU1XMG-16 | 2026-09-02 12:38:07 | -22.73171 | -42.34601 | 110° | 20km/h | 25377m | 5.7m/s | -55.9°C | 1.3% | 24.4hPa | 0V | 00:00:00 | 00:00:00 | 00:00:00 | |
| PU1XMG-16 | 2026-09-02 12:38:02 | -22.73164 | -42.34617 | 41° | 5km/h | 25344m | 5.1m/s | -55.9°C | 1.4% | 24.5hPa | 0V | 00:00:00 | 00:00:00 | 00:00:00 | |
| PU1XMG-16 | 2026-09-02 12:37:56 | -22.73175 | -42.34601 | 322° | 15km/h | 25304m | 5.6m/s | -55.7°C | 1.4% | 24.6hPa | 0V | 00:00:00 | 00:00:00 | 00:00:00 | |
| PU1XMG-16 | 2026-09-02 12:37:51 | -22.73186 | -42.34600 | 41° | 13km/h | 25270m | 5.7m/s | -55.5°C | 1.3% | 24.8hPa | 0V | 00:00:00 | 00:00:00 | 00:00:00 | |
| PU1XMG-16 | 2026-09-02 12:37:45 | -22.73201 | -42.34599 | 326° | 18km/h | 25231m | 5.8m/s | -55.5°C | 1.3% | 25.0hPa | 0V | 00:00:00 | 00:00:00 | 00:00:00 | |
| PU1XMG-16 | 2026-09-02 12:37:41 | -22.73219 | -42.34586 | 12° | 18km/h | 25197m | 5.6m/s | -55.8°C | 1.3% | 25.1hPa | 0V | 00:00:00 | 00:00:00 | 00:00:00 | |
| PU1XMG-16 | 2026-09-02 12:37:34 | -22.73236 | -42.34602 | 46° | 16km/h | 25158m | 7.6m/s | -56.0°C | 1.3% | 25.2hPa | 0V | 00:00:00 | 00:00:00 | 00:00:00 | |
| PU1XMG-16 | 2026-09-02 12:37:28 | -22.73253 | -42.34615 | 29° | 15km/h | 25119m | 7.8m/s | -56.1°C | 1.4% | 25.4hPa | 0V | 00:00:00 | 00:00:00 | 00:00:00 | |
| PU1XMG-16 | 2026-09-02 12:37:21 | -22.73274 | -42.34625 | 32° | 18km/h | 25072m | 4.4m/s | -56.0°C | 1.3% | 25.6hPa | 0V | 00:00:00 | 00:00:00 | 00:00:00 | |
| PU1XMG-16 | 2026-09-02 12:37:16 | -22.73291 | -42.34638 | 43° | 22km/h | 25039m | 6.5m/s | -56.0°C | 1.3% | 25.7hPa | 0V | 00:00:00 | 00:00:00 | 00:00:00 | |
| PU1XMG-16 | 2026-09-02 12:37:10 | -22.73308 | -42.34661 | 60° | 16km/h | 25001m | 7.3m/s | -56.0°C | 1.4% | 25.9hPa | 0V | 00:00:00 | 00:00:00 | 00:00:00 | |
| PU1XMG-16 | 2026-09-02 12:37:05 | -22.73323 | -42.34679 | 36° | 18km/h | 24968m | 6.5m/s | -56.0°C | 1.4% | 26.0hPa | 0V | 00:00:00 | 00:00:00 | 00:00:00 | |
| PU1XMG-16 | 2026-09-02 12:36:59 | -22.73349 | -42.34692 | 21° | 18km/h | 24926m | 9.0m/s | -55.8°C | 1.3% | 26.2hPa | 0V | 00:00:00 | 00:00:00 | 00:00:00 | |
| PU1XMG-16 | 2026-09-02 12:36:54 | -22.73373 | -42.34702 | 23° | 20km/h | 24894m | 5.7m/s | -55.5°C | 1.3% | 26.3hPa | 0V | 00:00:00 | 00:00:00 | 00:00:00 | |
| PU1XMG-16 | 2026-09-02 12:36:49 | -22.73388 | -42.34713 | 359° | 11km/h | 24863m | 5.2m/s | -55.4°C | 1.3% | 26.4hPa | 0V | 00:00:00 | 00:00:00 | 00:00:00 | |
| PU1XMG-16 | 2026-09-02 12:36:45 | -22.73414 | -42.34714 | 2° | 16km/h | 24824m | 5.4m/s | -55.3°C | 1.3% | 26.6hPa | 0V | 00:00:00 | 00:00:00 | 00:00:00 | |
| PU1XMG-16 | 2026-09-02 12:36:37 | -22.73436 | -42.34727 | 34° | 15km/h | 24785m | 5.9m/s | -55.4°C | 1.2% | 26.8hPa | 0V | 00:00:00 | 00:00:00 | 00:00:00 | |
| PU1XMG-16 | 2026-09-02 12:36:31 | -22.73457 | -42.34741 | 23° | 16km/h | 24745m | 5.4m/s | -55.4°C | 1.3% | 26.9hPa | 0V | 00:00:00 | 00:00:00 | 00:00:00 | |
| PU1XMG-16 | 2026-09-02 12:36:26 | -22.73477 | -42.34756 | 46° | 16km/h | 24711m | 6.5m/s | -55.7°C | 1.3% | 27.1hPa | 0V | 00:00:00 | 00:00:00 | 00:00:00 | |
| PU1XMG-16 | 2026-09-02 12:36:20 | -22.73496 | -42.34780 | 51° | 18km/h | 24672m | 7.7m/s | -55.9°C | 1.3% | 27.3hPa | 0V | 00:00:00 | 00:00:00 | 00:00:00 | |
| PU1XMG-16 | 2026-09-02 12:36:14 | -22.73517 | -42.34806 | 39° | 18km/h | 24631m | 6.4m/s | -55.8°C | 1.3% | 27.4hPa | 0V | 00:00:00 | 00:00:00 | 00:00:00 | |
| PU1XMG-16 | 2026-09-02 12:36:08 | -22.73539 | -42.34832 | 64° | 18km/h | 24591m | 5.9m/s | -55.6°C | 1.3% | 27.6hPa | 0V | 00:00:00 | 00:00:00 | 00:00:00 | |
| PU1XMG-16 | 2026-09-02 12:36:03 | -22.73551 | -42.34857 | 60° | 18km/h | 24559m | 7.4m/s | -55.6°C | 1.3% | 27.7hPa | 0V | 00:00:00 | 00:00:00 | 00:00:00 | |
| PU1XMG-16 | 2026-09-02 12:35:58 | -22.73565 | -42.34879 | 52° | 18km/h | 24527m | 8.6m/s | -55.5°C | 1.3% | 27.9hPa | 0V | 00:00:00 | 00:00:00 | 00:00:00 | |
| PU1XMG-16 | 2026-09-02 12:35:52 | -22.73574 | -42.34917 | 89° | 29km/h | 24487m | 7.3m/s | -55.4°C | 1.3% | 28.1hPa | 0V | 00:00:00 | 00:00:00 | 00:00:00 | |
| PU1XMG-16 | 2026-09-02 12:35:47 | -22.73579 | -42.34966 | 78° | 26km/h | 24449m | 8.2m/s | -55.3°C | 1.3% | 28.2hPa | 0V | 00:00:00 | 00:00:00 | 00:00:00 | |
| PU1XMG-16 | 2026-09-02 12:35:40 | -22.73583 | -42.35003 | 98° | 24km/h | 24409m | 7.2m/s | -55.4°C | 1.2% | 28.4hPa | 0V | 00:00:00 | 00:00:00 | 00:00:00 | |
| PU1XMG-16 | 2026-09-02 12:35:35 | -22.73582 | -42.35047 | 82° | 27km/h | 24369m | 7.9m/s | -55.6°C | 1.3% | 28.6hPa | 0V | 00:00:00 | 00:00:00 | 00:00:00 | |
| PU1XMG-16 | 2026-09-02 12:35:28 | -22.73580 | -42.35082 | 122° | 18km/h | 24330m | 6.5m/s | -55.6°C | 1.3% | 28.8hPa | 0V | 00:00:00 | 00:00:00 | 00:00:00 | |
| PU1XMG-16 | 2026-09-02 12:35:23 | -22.73567 | -42.35111 | 111° | 29km/h | 24297m | 7.8m/s | -55.7°C | 1.3% | 28.9hPa | 0V | 00:00:00 | 00:00:00 | 00:00:00 | |
| PU1XMG-16 | 2026-09-02 12:35:17 | -22.73555 | -42.35152 | 113° | 24km/h | 24260m | 5.8m/s | -55.8°C | 1.3% | 29.1hPa | 0V | 00:00:00 | 00:00:00 | 00:00:00 | |
| PU1XMG-16 | 2026-09-02 12:35:11 | -22.73542 | -42.35178 | 98° | 13km/h | 24212m | 5.6m/s | -55.7°C | 1.3% | 29.3hPa | 0V | 00:00:00 | 00:00:00 | 00:00:00 | |
| PU1XMG-16 | 2026-09-02 12:34:58 | -22.73536 | -42.35223 | 47° | 11km/h | 24134m | 5.0m/s | -55.5°C | 1.3% | 29.7hPa | 0V | 00:00:00 | 00:00:00 | 00:00:00 | |
| PU1XMG-16 | 2026-09-02 12:34:52 | -22.73551 | -42.35243 | 54° | 18km/h | 24093m | 6.0m/s | -55.5°C | 1.3% | 29.9hPa | 0V | 00:00:00 | 00:00:00 | 00:00:00 | |
| PU1XMG-16 | 2026-09-02 12:34:48 | -22.73562 | -42.35264 | 55° | 13km/h | 24060m | 5.9m/s | -55.4°C | 1.3% | 30.0hPa | 0V | 00:00:00 | 00:00:00 | 00:00:00 | |
| PU1XMG-16 | 2026-09-02 12:34:40 | -22.73572 | -42.35287 | 48° | 16km/h | 24008m | 7.3m/s | -55.6°C | 1.3% | 30.3hPa | 0V | 00:00:00 | 00:00:00 | 00:00:00 | |
| PU1XMG-16 | 2026-09-02 12:34:35 | -22.73586 | -42.35303 | 60° | 15km/h | 23976m | 7.5m/s | -55.6°C | 1.3% | 30.4hPa | 0V | 00:00:00 | 00:00:00 | 00:00:00 | |
| PU1XMG-16 | 2026-09-02 12:34:27 | -22.73584 | -42.35324 | 99° | 11km/h | 23932m | 4.9m/s | -55.4°C | 1.2% | 30.7hPa | 0V | 00:00:00 | 00:00:00 | 00:00:00 | |
| PU1XMG-16 | 2026-09-02 12:34:22 | -22.73579 | -42.35337 | 115° | 16km/h | 23898m | 7.1m/s | -56.0°C | 1.3% | 30.8hPa | 0V | 00:00:00 | 00:00:00 | 00:00:00 | |
| PU1XMG-16 | 2026-09-02 12:34:15 | -22.73553 | -42.35362 | 148° | 18km/h | 23853m | 4.9m/s | -56.0°C | 1.3% | 31.0hPa | 0V | 00:00:00 | 00:00:00 | 00:00:00 | |
| PU1XMG-16 | 2026-09-02 12:34:09 | -22.73535 | -42.35370 | 159° | 18km/h | 23816m | 4.8m/s | -56.2°C | 1.3% | 31.2hPa | 0V | 00:00:00 | 00:00:00 | 00:00:00 | |
| PU1XMG-16 | 2026-09-02 12:34:03 | -22.73503 | -42.35379 | 159° | 16km/h | 23778m | 6.3m/s | -56.6°C | 1.3% | 31.4hPa | 0V | 00:00:00 | 00:00:00 | 00:00:00 | |
| PU1XMG-16 | 2026-09-02 12:33:58 | -22.73494 | -42.35383 | 0° | 0km/h | 23745m | 4.1m/s | -56.9°C | 1.3% | 31.6hPa | 0V | 00:00:00 | 00:00:00 | 00:00:00 | |
| PU1XMG-16 | 2026-09-02 12:33:52 | -22.73485 | -42.35376 | 191° | 13km/h | 23708m | 6.4m/s | -57.6°C | 1.4% | 31.7hPa | 0V | 00:00:00 | 00:00:00 | 00:00:00 | |
| PU1XMG-16 | 2026-09-02 12:33:48 | -22.73464 | -42.35372 | 197° | 15km/h | 23675m | 5.2m/s | -57.9°C | 1.5% | 31.9hPa | 0V | 00:00:00 | 00:00:00 | 00:00:00 | |
| PU1XMG-16 | 2026-09-02 12:33:42 | -22.73457 | -42.35361 | 262° | 7km/h | 23643m | 4.8m/s | -57.8°C | 1.4% | 32.1hPa | 0V | 00:00:00 | 00:00:00 | 00:00:00 | |
| PU1XMG-16 | 2026-09-02 12:33:37 | -22.73441 | -42.35349 | 191° | 15km/h | 23605m | 4.3m/s | -57.5°C | 1.4% | 32.3hPa | 0V | 00:00:00 | 00:00:00 | 00:00:00 | |
| PU1XMG-16 | 2026-09-02 12:33:31 | -22.73423 | -42.35334 | 240° | 15km/h | 23575m | 6.9m/s | -57.6°C | 1.4% | 32.4hPa | 0V | 00:00:00 | 00:00:00 | 00:00:00 | |
| PU1XMG-16 | 2026-09-02 12:33:25 | -22.73422 | -42.35319 | 285° | 4km/h | 23538m | 8.3m/s | -57.7°C | 1.4% | 32.6hPa | 0V | 00:00:00 | 00:00:00 | 00:00:00 | |
| PU1XMG-16 | 2026-09-02 12:33:18 | -22.73414 | -42.35311 | 191° | 5km/h | 23493m | 6.0m/s | -58.1°C | 1.4% | 32.9hPa | 0V | 00:00:00 | 00:00:00 | 00:00:00 | |
| PU1XMG-16 | 2026-09-02 12:33:13 | -22.73417 | -42.35300 | 316° | 15km/h | 23461m | 8.5m/s | -58.7°C | 1.5% | 33.0hPa | 0V | 00:00:00 | 00:00:00 | 00:00:00 | |
| PU1XMG-16 | 2026-09-02 12:33:07 | -22.73433 | -42.35280 | 309° | 13km/h | 23423m | 5.4m/s | -59.1°C | 1.5% | 33.2hPa | 0V | 00:00:00 | 00:00:00 | 00:00:00 | |
| PU1XMG-16 | 2026-09-02 12:33:01 | -22.73434 | -42.35262 | 244° | 5km/h | 23385m | 5.6m/s | -59.3°C | 1.5% | 33.4hPa | 0V | 00:00:00 | 00:00:00 | 00:00:00 | |
| PU1XMG-16 | 2026-09-02 12:32:55 | -22.73431 | -42.35250 | 289° | 7km/h | 23345m | 5.7m/s | -59.4°C | 1.5% | 33.6hPa | 0V | 00:00:00 | 00:00:00 | 00:00:00 | |
| PU1XMG-16 | 2026-09-02 12:32:49 | -22.73429 | -42.35232 | 245° | 15km/h | 23305m | 8.3m/s | -59.4°C | 1.6% | 33.8hPa | 0V | 00:00:00 | 00:00:00 | 00:00:00 | |
| PU1XMG-16 | 2026-09-02 12:32:43 | -22.73425 | -42.35210 | 280° | 20km/h | 23264m | 5.9m/s | -59.5°C | 1.6% | 34.1hPa | 0V | 00:00:00 | 00:00:00 | 00:00:00 | |
| PU1XMG-16 | 2026-09-02 12:32:38 | -22.73432 | -42.35182 | 276° | 18km/h | 23226m | 4.6m/s | -59.3°C | 1.5% | 34.3hPa | 0V | 00:00:00 | 00:00:00 | 00:00:00 | |
| PU1XMG-16 | 2026-09-02 12:32:31 | -22.73439 | -42.35156 | 301° | 26km/h | 23189m | 6.8m/s | -59.3°C | 1.5% | 34.5hPa | 0V | 00:00:00 | 00:00:00 | 00:00:00 | |
| PU1XMG-16 | 2026-09-02 12:32:26 | -22.73459 | -42.35129 | 311° | 26km/h | 23157m | 7.4m/s | -59.1°C | 1.5% | 34.7hPa | 0V | 00:00:00 | 00:00:00 | 00:00:00 | |
| PU1XMG-16 | 2026-09-02 12:32:20 | -22.73479 | -42.35108 | 328° | 20km/h | 23118m | 7.3m/s | -58.9°C | 1.5% | 34.9hPa | 0V | 00:00:00 | 00:00:00 | 00:00:00 | |
| PU1XMG-16 | 2026-09-02 12:32:15 | -22.73507 | -42.35093 | 334° | 29km/h | 23085m | 7.2m/s | -58.8°C | 1.5% | 35.1hPa | 0V | 00:00:00 | 00:00:00 | 00:00:00 | |
| PU1XMG-16 | 2026-09-02 12:32:09 | -22.73541 | -42.35069 | 331° | 20km/h | 23039m | 7.8m/s | -58.9°C | 1.5% | 35.3hPa | 0V | 00:00:00 | 00:00:00 | 00:00:00 | |
| PU1XMG-16 | 2026-09-02 12:32:02 | -22.73581 | -42.35059 | 348° | 33km/h | 23002m | 8.2m/s | -58.7°C | 1.5% | 35.6hPa | 0V | 00:00:00 | 00:00:00 | 00:00:00 | |
| PU1XMG-16 | 2026-09-02 12:31:55 | -22.73634 | -42.35046 | 360° | 16km/h | 22954m | 3.9m/s | -58.5°C | 1.5% | 35.8hPa | 0V | 00:00:00 | 00:00:00 | 00:00:00 | |
| PU1XMG-16 | 2026-09-02 12:31:50 | -22.73656 | -42.35047 | 358° | 18km/h | 22918m | 5.0m/s | -58.3°C | 1.5% | 36.1hPa | 0V | 00:00:00 | 00:00:00 | 00:00:00 | |
| PU1XMG-16 | 2026-09-02 12:31:44 | -22.73696 | -42.35042 | 350° | 22km/h | 22878m | 5.8m/s | -58.0°C | 1.4% | 36.2hPa | 0V | 00:00:00 | 00:00:00 | 00:00:00 | |
| PU1XMG-16 | 2026-09-02 12:31:40 | -22.73723 | -42.35041 | 7° | 15km/h | 22845m | 8.2m/s | -57.9°C | 1.4% | 36.4hPa | 0V | 00:00:00 | 00:00:00 | 00:00:00 | |
| PU1XMG-16 | 2026-09-02 12:31:34 | -22.73742 | -42.35045 | 4° | 15km/h | 22812m | 7.7m/s | -57.9°C | 1.4% | 36.6hPa | 0V | 00:00:00 | 00:00:00 | 00:00:00 | |
| PU1XMG-16 | 2026-09-02 12:31:28 | -22.73777 | -42.35042 | 353° | 18km/h | 22766m | 5.7m/s | -57.8°C | 1.4% | 36.9hPa | 0V | 00:00:00 | 00:00:00 | 00:00:00 | |
| PU1XMG-16 | 2026-09-02 12:30:44 | -22.73959 | -42.35098 | 353° | 16km/h | 22478m | 5.0m/s | -58.5°C | 1.5% | 38.7hPa | 0V | 00:00:00 | 00:00:00 | 00:00:00 | |
| PU1XMG-16 | 2026-09-02 12:30:28 | -22.74004 | -42.35075 | 344° | 22km/h | 22381m | 5.6m/s | -58.5°C | 1.5% | 39.3hPa | 0V | 00:00:00 | 00:00:00 | 00:00:00 | |
| PU1XMG-16 | 2026-09-02 12:30:06 | -22.74095 | -42.35095 | 60° | 31km/h | 22238m | 5.6m/s | -59.9°C | 1.5% | 40.2hPa | 0V | 00:00:00 | 00:00:00 | 00:00:00 | |
| PU1XMG-16 | 2026-09-02 12:29:58 | -22.74145 | -42.35149 | 32° | 31km/h | 22188m | 6.2m/s | -60.2°C | 1.6% | 40.5hPa | 0V | 00:00:00 | 00:00:00 | 00:00:00 | |
| PU1XMG-16 | 2026-09-02 12:29:51 | -22.74181 | -42.35174 | 33° | 18km/h | 22146m | 5.0m/s | -60.2°C | 1.5% | 40.7hPa | 0V | 00:00:00 | 00:00:00 | 00:00:00 | |
| PU1XMG-16 | 2026-09-02 12:29:46 | -22.74203 | -42.35192 | 42° | 22km/h | 22113m | 6.3m/s | -60.2°C | 1.6% | 41.0hPa | 0V | 00:00:00 | 00:00:00 | 00:00:00 | |
| PU1XMG-16 | 2026-09-02 12:29:40 | -22.74225 | -42.35218 | 43° | 18km/h | 22078m | 5.3m/s | -60.3°C | 1.5% | 41.2hPa | 0V | 00:00:00 | 00:00:00 | 00:00:00 | |
| PU1XMG-16 | 2026-09-02 12:29:29 | -22.74255 | -42.35261 | 78° | 13km/h | 22005m | 7.3m/s | -60.4°C | 1.6% | 41.7hPa | 0V | 00:00:00 | 00:00:00 | 00:00:00 | |
| PU1XMG-16 | 2026-09-02 12:29:21 | -22.74269 | -42.35275 | 22° | 13km/h | 21964m | 8.2m/s | -60.6°C | 1.6% | 42.0hPa | 0V | 00:00:00 | 00:00:00 | 00:00:00 | |
| PU1XMG-16 | 2026-09-02 12:29:17 | -22.74289 | -42.35283 | 18° | 20km/h | 21932m | 7.7m/s | -60.4°C | 1.6% | 42.2hPa | 0V | 00:00:00 | 00:00:00 | 00:00:00 | |
| PU1XMG-16 | 2026-09-02 12:28:48 | -22.74442 | -42.35341 | 40° | 20km/h | 21762m | 4.6m/s | -59.6°C | 1.5% | 43.4hPa | 0V | 00:00:00 | 00:00:00 | 00:00:00 | |
| PU1XMG-16 | 2026-09-02 12:28:42 | -22.74467 | -42.35369 | 38° | 27km/h | 21728m | 6.2m/s | -59.9°C | 1.5% | 43.6hPa | 0V | 00:00:00 | 00:00:00 | 00:00:00 | |
| PU1XMG-16 | 2026-09-02 12:28:37 | -22.74499 | -42.35386 | 22° | 24km/h | 21698m | 5.3m/s | -60.1°C | 1.6% | 43.8hPa | 0V | 00:00:00 | 00:00:00 | 00:00:00 | |
| PU1XMG-16 | 2026-09-02 12:28:31 | -22.74517 | -42.35409 | 69° | 20km/h | 21662m | 6.6m/s | -59.9°C | 1.6% | 44.1hPa | 0V | 00:00:00 | 00:00:00 | 00:00:00 | |
| PU1XMG-16 | 2026-09-02 12:28:26 | -22.74541 | -42.35431 | 28° | 29km/h | 21633m | 6.2m/s | -59.8°C | 1.5% | 44.3hPa | 0V | 00:00:00 | 00:00:00 | 00:00:00 | |
| PU1XMG-16 | 2026-09-02 12:28:19 | -22.74582 | -42.35467 | 69° | 33km/h | 21591m | 5.3m/s | -59.8°C | 1.5% | 44.6hPa | 0V | 00:00:00 | 00:00:00 | 00:00:00 | |
| PU1XMG-16 | 2026-09-02 12:28:13 | -22.74601 | -42.35507 | 47° | 27km/h | 21556m | 4.3m/s | -59.8°C | 1.5% | 44.8hPa | 0V | 00:00:00 | 00:00:00 | 00:00:00 | |
| PU1XMG-16 | 2026-09-02 12:28:04 | -22.74641 | -42.35566 | 78° | 35km/h | 21502m | 7.6m/s | -60.4°C | 1.6% | 45.2hPa | 0V | 00:00:00 | 00:00:00 | 00:00:00 | |
| PU1XMG-16 | 2026-09-02 12:27:59 | -22.74652 | -42.35613 | 62° | 24km/h | 21467m | 5.9m/s | -60.4°C | 1.6% | 45.5hPa | 0V | 00:00:00 | 00:00:00 | 00:00:00 | |
| PU1XMG-16 | 2026-09-02 12:25:05 | -22.74230 | -42.36781 | 138° | 20km/h | 20430m | 5.1m/s | -62.4°C | 1.9% | 53.7hPa | 0V | 00:00:00 | 00:00:00 | 00:00:00 | |
| PU1XMG-16 | 2026-09-02 12:24:58 | -22.74187 | -42.36784 | 176° | 26km/h | 20378m | 6.5m/s | -62.8°C | 1.8% | 54.2hPa | 0V | 00:00:00 | 00:00:00 | 00:00:00 | |
| PU1XMG-16 | 2026-09-02 12:24:50 | -22.74146 | -42.36797 | 163° | 22km/h | 20334m | 5.7m/s | -62.5°C | 1.9% | 54.6hPa | 0V | 00:00:00 | 00:00:00 | 00:00:00 | |
| PU1XMG-16 | 2026-09-02 12:24:45 | -22.74123 | -42.36801 | 180° | 16km/h | 20302m | 7.5m/s | -62.8°C | 1.9% | 54.9hPa | 0V | 00:00:00 | 00:00:00 | 00:00:00 | |
| PU1XMG-16 | 2026-09-02 12:24:40 | -22.74104 | -42.36808 | 143° | 16km/h | 20272m | 6.4m/s | -63.0°C | 1.9% | 55.1hPa | 0V | 00:00:00 | 00:00:00 | 00:00:00 | |
| PU1XMG-16 | 2026-09-02 12:24:35 | -22.74089 | -42.36820 | 139° | 15km/h | 20241m | 5.1m/s | -63.6°C | 2.1% | 55.4hPa | 0V | 00:00:00 | 00:00:00 | 00:00:00 | |
| PU1XMG-16 | 2026-09-02 12:24:29 | -22.74065 | -42.36826 | 182° | 26km/h | 20202m | 7.3m/s | -63.8°C | 2.0% | 55.8hPa | 0V | 00:00:00 | 00:00:00 | 00:00:00 | |
| PU1XMG-16 | 2026-09-02 12:24:24 | -22.74031 | -42.36817 | 206° | 26km/h | 20170m | 6.9m/s | -63.4°C | 2.0% | 56.1hPa | 0V | 00:00:00 | 00:00:00 | 00:00:00 | |
| PU1XMG-16 | 2026-09-02 12:24:19 | -22.74009 | -42.36798 | 225° | 18km/h | 20137m | 7.1m/s | -63.4°C | 2.0% | 56.3hPa | 0V | 00:00:00 | 00:00:00 | 00:00:00 | |
| PU1XMG-16 | 2026-09-02 12:24:13 | -22.73975 | -42.36785 | 197° | 29km/h | 20102m | 7.3m/s | -64.2°C | 2.2% | 56.7hPa | 0V | 00:00:00 | 00:00:00 | 00:00:00 | |
| PU1XMG-16 | 2026-09-02 12:24:09 | -22.73947 | -42.36775 | 196° | 20km/h | 20070m | 5.8m/s | -64.2°C | 2.2% | 57.0hPa | 0V | 00:00:00 | 00:00:00 | 00:00:00 | |
| PU1XMG-16 | 2026-09-02 12:24:02 | -22.73921 | -42.36768 | 198° | 15km/h | 20030m | 4.9m/s | -63.7°C | 2.1% | 57.4hPa | 0V | 00:00:00 | 00:00:00 | 00:00:00 | |
| PU1XMG-16 | 2026-09-02 12:22:48 | -22.73854 | -42.37114 | 51° | 26km/h | 19551m | 6.2m/s | -65.2°C | 2.4% | 62.0hPa | 0V | 00:00:00 | 00:00:00 | 00:00:00 | |
| PU1XMG-16 | 2026-09-02 12:22:40 | -22.73875 | -42.37143 | 63° | 15km/h | 19500m | 7.0m/s | -65.1°C | 2.5% | 62.5hPa | 0V | 00:00:00 | 00:00:00 | 00:00:00 | |
| PU1XMG-16 | 2026-09-02 12:22:34 | -22.73889 | -42.37167 | 53° | 20km/h | 19465m | 7.1m/s | -64.9°C | 2.3% | 62.9hPa | 0V | 00:00:00 | 00:00:00 | 00:00:00 | |
| PU1XMG-16 | 2026-09-02 12:22:23 | -22.73911 | -42.37214 | 77° | 16km/h | 19380m | 11.5m/s | -64.6°C | 2.2% | 63.7hPa | 0V | 00:00:00 | 00:00:00 | 00:00:00 | |
| PU1XMG-16 | 2026-09-02 12:22:18 | -22.73924 | -42.37242 | 73° | 18km/h | 19339m | 7.8m/s | -64.8°C | 2.3% | 64.2hPa | 0V | 00:00:00 | 00:00:00 | 00:00:00 | |
| PU1XMG-16 | 2026-09-02 12:22:09 | -22.73921 | -42.37288 | 93° | 22km/h | 19283m | 5.3m/s | -64.7°C | 2.4% | 64.8hPa | 0V | 00:00:00 | 00:00:00 | 00:00:00 | |
| PU1XMG-16 | 2026-09-02 12:22:04 | -22.73924 | -42.37317 | 80° | 20km/h | 19244m | 7.6m/s | -64.5°C | 2.3% | 65.2hPa | 0V | 00:00:00 | 00:00:00 | 00:00:00 | |
| PU1XMG-16 | 2026-09-02 12:21:58 | -22.73925 | -42.37352 | 84° | 20km/h | 19203m | 8.5m/s | -64.4°C | 2.3% | 65.7hPa | 0V | 00:00:00 | 00:00:00 | 00:00:00 | |
| PU1XMG-16 | 2026-09-02 12:21:47 | -22.73926 | -42.37410 | 91° | 18km/h | 19132m | 6.1m/s | -63.7°C | 2.2% | 66.4hPa | 0V | 00:00:00 | 00:00:00 | 00:00:00 | |
| PU1XMG-16 | 2026-09-02 12:21:42 | -22.73926 | -42.37437 | 94° | 20km/h | 19101m | 8.7m/s | -63.5°C | 2.3% | 66.8hPa | 0V | 00:00:00 | 00:00:00 | 00:00:00 | |
| PU1XMG-16 | 2026-09-02 12:21:36 | -22.73921 | -42.37468 | 105° | 18km/h | 19062m | 7.7m/s | -63.3°C | 2.3% | 67.3hPa | 0V | 00:00:00 | 00:00:00 | 00:00:00 | |
| PU1XMG-16 | 2026-09-02 12:21:29 | -22.73914 | -42.37510 | 96° | 24km/h | 19015m | 5.6m/s | -63.1°C | 2.2% | 67.7hPa | 0V | 00:00:00 | 00:00:00 | 00:00:00 | |
| PU1XMG-16 | 2026-09-02 12:21:24 | -22.73914 | -42.37547 | 88° | 24km/h | 18973m | 6.4m/s | -62.8°C | 2.2% | 68.2hPa | 0V | 00:00:00 | 00:00:00 | 00:00:00 | |
| PU1XMG-16 | 2026-09-02 12:20:14 | -22.73858 | -42.38268 | 122° | 57km/h | 18529m | 8.8m/s | -64.7°C | 2.6% | 73.3hPa | 0V | 00:00:00 | 00:00:00 | 00:00:00 | |
| PU1XMG-16 | 2026-09-02 12:17:41 | -22.73308 | -42.40552 | 79° | 93km/h | 17518m | 5.9m/s | -66.6°C | 4.7% | 86.4hPa | 0V | 00:00:00 | 00:00:00 | 00:00:00 | |
| PU1XMG-16 | 2026-09-02 12:17:30 | -22.73368 | -42.40837 | 75° | 86km/h | 17451m | 4.5m/s | -67.2°C | 5.3% | 87.4hPa | 0V | 00:00:00 | 00:00:00 | 00:00:00 | |
| PU1XMG-16 | 2026-09-02 12:17:21 | -22.73411 | -42.41014 | 76° | 84km/h | 17406m | 5.8m/s | -67.6°C | 5.6% | 88.1hPa | 0V | 00:00:00 | 00:00:00 | 00:00:00 | |
| PU1XMG-16 | 2026-09-02 12:17:14 | -22.73457 | -42.41182 | 75° | 78km/h | 17356m | 7.1m/s | -67.9°C | 5.6% | 88.8hPa | 0V | 00:00:00 | 00:00:00 | 00:00:00 | |
| PU1XMG-16 | 2026-09-02 12:17:04 | -22.73517 | -42.41396 | 74° | 84km/h | 17301m | 4.2m/s | -68.1°C | 6.1% | 89.7hPa | 0V | 00:00:00 | 00:00:00 | 00:00:00 | |
| PU1XMG-16 | 2026-09-02 12:16:58 | -22.73544 | -42.41526 | 79° | 84km/h | 17268m | 5.8m/s | -68.1°C | 6.0% | 90.2hPa | 0V | 00:00:00 | 00:00:00 | 00:00:00 | |
| PU1XMG-16 | 2026-09-02 12:16:52 | -22.73576 | -42.41638 | 70° | 89km/h | 17240m | 4.3m/s | -68.0°C | 6.0% | 90.5hPa | 0V | 00:00:00 | 00:00:00 | 00:00:00 | |
| PU1XMG-16 | 2026-09-02 12:16:43 | -22.73631 | -42.41845 | 79° | 89km/h | 17191m | 4.4m/s | -68.8°C | 6.6% | 91.3hPa | 0V | 00:00:00 | 00:00:00 | 00:00:00 | |
| PU1XMG-16 | 2026-09-02 12:16:36 | -22.73660 | -42.42017 | 83° | 93km/h | 17150m | 3.8m/s | -68.8°C | 6.7% | 91.9hPa | 0V | 00:00:00 | 00:00:00 | 00:00:00 | |
| PU1XMG-16 | 2026-09-02 12:16:30 | -22.73675 | -42.42167 | 87° | 91km/h | 17117m | 5.9m/s | -68.7°C | 7.0% | 92.4hPa | 0V | 00:00:00 | 00:00:00 | 00:00:00 | |
| PU1XMG-16 | 2026-09-02 12:16:24 | -22.73683 | -42.42313 | 87° | 93km/h | 17084m | 6.6m/s | -68.6°C | 7.2% | 92.9hPa | 0V | 00:00:00 | 00:00:00 | 00:00:00 | |
| PU1XMG-16 | 2026-09-02 12:16:19 | -22.73696 | -42.42472 | 85° | 99km/h | 17051m | 5.9m/s | -68.7°C | 6.9% | 93.4hPa | 0V | 00:00:00 | 00:00:00 | 00:00:00 | |
| PU1XMG-16 | 2026-09-02 12:16:10 | -22.73710 | -42.42685 | 87° | 97km/h | 17008m | 7.5m/s | -68.5°C | 7.2% | 94.1hPa | 0V | 00:00:00 | 00:00:00 | 00:00:00 | |
| PU1XMG-16 | 2026-09-02 12:16:04 | -22.73717 | -42.42837 | 90° | 89km/h | 16973m | 6.9m/s | -69.0°C | 6.9% | 94.7hPa | 0V | 00:00:00 | 00:00:00 | 00:00:00 | |
| PU1XMG-16 | 2026-09-02 12:15:57 | -22.73716 | -42.43017 | 90° | 102km/h | 16935m | 6.7m/s | -69.6°C | 7.2% | 95.3hPa | 0V | 00:00:00 | 00:00:00 | 00:00:00 | |
| PU1XMG-16 | 2026-09-02 12:15:51 | -22.73712 | -42.43179 | 96° | 93km/h | 16903m | 5.2m/s | -69.8°C | 7.8% | 95.8hPa | 0V | 00:00:00 | 00:00:00 | 00:00:00 | |
| PU1XMG-16 | 2026-09-02 12:15:46 | -22.73691 | -42.43336 | 101° | 100km/h | 16869m | 7.2m/s | -70.1°C | 7.9% | 96.4hPa | 0V | 00:00:00 | 00:00:00 | 00:00:00 | |
| PU1XMG-16 | 2026-09-02 12:15:40 | -22.73669 | -42.43502 | 99° | 102km/h | 16834m | 4.8m/s | -70.2°C | 7.7% | 96.9hPa | 0V | 00:00:00 | 00:00:00 | 00:00:00 | |
| PU1XMG-16 | 2026-09-02 12:15:34 | -22.73646 | -42.43636 | 105° | 102km/h | 16808m | 5.3m/s | -70.1°C | 7.7% | 97.4hPa | 0V | 00:00:00 | 00:00:00 | 00:00:00 | |
| PU1XMG-16 | 2026-09-02 12:15:28 | -22.73612 | -42.43800 | 105° | 100km/h | 16773m | 5.5m/s | -70.1°C | 8.2% | 98.0hPa | 0V | 00:00:00 | 00:00:00 | 00:00:00 | |
| PU1XMG-16 | 2026-09-02 12:15:22 | -22.73568 | -42.43962 | 108° | 106km/h | 16738m | 6.7m/s | -69.9°C | 7.8% | 98.5hPa | 0V | 00:00:00 | 00:00:00 | 00:00:00 | |
| PU1XMG-16 | 2026-09-02 12:15:01 | -22.73399 | -42.44541 | 112° | 102km/h | 16612m | 5.4m/s | -69.9°C | 8.0% | 100.6hPa | 0V | 00:00:00 | 00:00:00 | 00:00:00 | |
| PU1XMG-16 | 2026-09-02 12:14:56 | -22.73357 | -42.44680 | 108° | 110km/h | 16586m | 6.9m/s | -69.8°C | 7.6% | 101.0hPa | 0V | 00:00:00 | 00:00:00 | 00:00:00 | |
| PU1XMG-16 | 2026-09-02 12:14:20 | -22.73035 | -42.45692 | 107° | 111km/h | 16387m | 4.8m/s | -70.5°C | 7.9% | 104.4hPa | 0V | 00:00:00 | 00:00:00 | 00:00:00 | |
| PU1XMG-16 | 2026-09-02 12:13:34 | -22.72746 | -42.46878 | 109° | 122km/h | 16091m | 9.3m/s | -67.9°C | 7.1% | 109.7hPa | 0V | 00:00:00 | 00:00:00 | 00:00:00 | |
| PU1XMG-16 | 2026-09-02 12:13:22 | -22.72669 | -42.47198 | 101° | 95km/h | 15997m | 7.3m/s | -67.8°C | 6.7% | 111.5hPa | 0V | 00:00:00 | 00:00:00 | 00:00:00 | |
| PU1XMG-16 | 2026-09-02 12:13:01 | -22.72644 | -42.47811 | 91° | 104km/h | 15876m | 4.9m/s | -68.0°C | 7.1% | 113.8hPa | 0V | 00:00:00 | 00:00:00 | 00:00:00 | |
| PU1XMG-16 | 2026-09-02 12:12:34 | -22.72589 | -42.48570 | 99° | 104km/h | 15738m | 6.0m/s | -67.7°C | 6.9% | 116.4hPa | 0V | 00:00:00 | 00:00:00 | 00:00:00 | |
| PU1XMG-16 | 2026-09-02 12:12:11 | -22.72493 | -42.49258 | 102° | 97km/h | 15609m | 6.1m/s | -67.2°C | 6.9% | 118.9hPa | 0V | 00:00:00 | 00:00:00 | 00:00:00 | |
| PU1XMG-16 | 2026-09-02 12:11:01 | -22.72538 | -42.50965 | 77° | 97km/h | 15216m | 5.4m/s | -65.9°C | 5.9% | 126.9hPa | 0V | 00:00:00 | 00:00:00 | 00:00:00 | |
| PU1XMG-16 | 2026-09-02 12:10:54 | -22.72592 | -42.51127 | 66° | 99km/h | 15171m | 4.6m/s | -65.6°C | 5.8% | 127.8hPa | 0V | 00:00:00 | 00:00:00 | 00:00:00 | |
| PU1XMG-16 | 2026-09-02 12:10:47 | -22.72645 | -42.51308 | 75° | 95km/h | 15129m | 6.6m/s | -65.5°C | 5.4% | 128.7hPa | 0V | 00:00:00 | 00:00:00 | 00:00:00 | |
| PU1XMG-16 | 2026-09-02 12:10:39 | -22.72726 | -42.51547 | 62° | 100km/h | 15052m | 9.1m/s | -65.2°C | 4.7% | 130.4hPa | 0V | 00:00:00 | 00:00:00 | 00:00:00 | |
| PU1XMG-16 | 2026-09-02 12:10:08 | -22.73083 | -42.52269 | 60° | 110km/h | 14861m | 8.6m/s | -63.8°C | 4.1% | 134.4hPa | 0V | 00:00:00 | 00:00:00 | 00:00:00 | |
| PU1XMG-16 | 2026-09-02 12:10:01 | -22.73182 | -42.52456 | 61° | 115km/h | 14815m | 5.9m/s | -63.8°C | 4.2% | 135.4hPa | 0V | 00:00:00 | 00:00:00 | 00:00:00 | |
| PU1XMG-16 | 2026-09-02 12:09:55 | -22.73273 | -42.52618 | 60° | 117km/h | 14780m | 7.5m/s | -63.9°C | 4.1% | 136.3hPa | 0V | 00:00:00 | 00:00:00 | 00:00:00 | |
| PU1XMG-16 | 2026-09-02 12:09:49 | -22.73369 | -42.52790 | 60° | 126km/h | 14741m | 6.3m/s | -63.7°C | 4.1% | 137.1hPa | 0V | 00:00:00 | 00:00:00 | 00:00:00 | |
| PU1XMG-16 | 2026-09-02 12:09:04 | -22.74140 | -42.54284 | 66° | 146km/h | 14475m | 5.5m/s | -63.1°C | 5.8% | 143.2hPa | 0V | 00:00:00 | 00:00:00 | 00:00:00 | |
| PU1XMG-16 | 2026-09-02 12:08:58 | -22.74240 | -42.54540 | 69° | 142km/h | 14433m | 5.1m/s | -62.9°C | 5.6% | 144.2hPa | 0V | 00:00:00 | 00:00:00 | 00:00:00 | |
| PU1XMG-16 | 2026-09-02 12:08:50 | -22.74335 | -42.54799 | 68° | 148km/h | 14392m | 4.6m/s | -62.5°C | 6.0% | 145.2hPa | 0V | 00:00:00 | 00:00:00 | 00:00:00 | |
| PU1XMG-16 | 2026-09-02 12:08:45 | -22.74407 | -42.54984 | 68° | 146km/h | 14362m | 7.3m/s | -62.5°C | 6.6% | 145.9hPa | 0V | 00:00:00 | 00:00:00 | 00:00:00 | |
| PU1XMG-16 | 2026-09-02 12:08:40 | -22.74476 | -42.55167 | 70° | 144km/h | 14333m | 7.9m/s | -62.7°C | 7.0% | 146.5hPa | 0V | 00:00:00 | 00:00:00 | 00:00:00 | |
| PU1XMG-16 | 2026-09-02 12:08:34 | -22.74551 | -42.55394 | 72° | 148km/h | 14296m | 5.3m/s | -63.0°C | 7.5% | 147.4hPa | 0V | 00:00:00 | 00:00:00 | 00:00:00 | |
| PU1XMG-16 | 2026-09-02 12:08:29 | -22.74614 | -42.55586 | 71° | 151km/h | 14266m | 8.1m/s | -63.4°C | 8.1% | 148.1hPa | 0V | 00:00:00 | 00:00:00 | 00:00:00 | |
| PU1XMG-16 | 2026-09-02 12:08:23 | -22.74697 | -42.55829 | 72° | 159km/h | 14230m | 4.7m/s | -63.2°C | 8.6% | 149.0hPa | 0V | 00:00:00 | 00:00:00 | 00:00:00 | |
| PU1XMG-16 | 2026-09-02 12:08:18 | -22.74764 | -42.56038 | 72° | 161km/h | 14198m | 7.7m/s | -63.3°C | 9.9% | 149.8hPa | 0V | 00:00:00 | 00:00:00 | 00:00:00 | |
| PU1XMG-16 | 2026-09-02 12:08:12 | -22.74844 | -42.56285 | 73° | 164km/h | 14161m | 5.1m/s | -63.6°C | 10.3% | 150.6hPa | 0V | 00:00:00 | 00:00:00 | 00:00:00 | |
| PU1XMG-16 | 2026-09-02 12:08:07 | -22.74908 | -42.56503 | 74° | 168km/h | 14130m | 5.1m/s | -63.9°C | 11.0% | 151.4hPa | 0V | 00:00:00 | 00:00:00 | 00:00:00 | |
| PU1XMG-16 | 2026-09-02 12:08:01 | -22.74981 | -42.56762 | 74° | 162km/h | 14093m | 7.2m/s | -63.9°C | 11.1% | 152.3hPa | 0V | 00:00:00 | 00:00:00 | 00:00:00 | |
| PU1XMG-16 | 2026-09-02 12:07:56 | -22.75040 | -42.56976 | 75° | 164km/h | 14062m | 7.4m/s | -63.9°C | 11.5% | 153.1hPa | 0V | 00:00:00 | 00:00:00 | 00:00:00 | |
| PU1XMG-16 | 2026-09-02 12:07:50 | -22.75099 | -42.57232 | 78° | 159km/h | 14025m | 8.3m/s | -63.5°C | 11.3% | 154.0hPa | 0V | 00:00:00 | 00:00:00 | 00:00:00 | |
| PU1XMG-16 | 2026-09-02 12:07:45 | -22.75145 | -42.57447 | 78° | 161km/h | 13995m | 8.8m/s | -63.3°C | 11.3% | 154.7hPa | 0V | 00:00:00 | 00:00:00 | 00:00:00 | |
| PU1XMG-16 | 2026-09-02 12:07:39 | -22.75198 | -42.57707 | 78° | 161km/h | 13956m | 9.5m/s | -63.0°C | 10.3% | 155.7hPa | 0V | 00:00:00 | 00:00:00 | 00:00:00 | |
| PU1XMG-16 | 2026-09-02 12:07:17 | -22.75412 | -42.58649 | 77° | 161km/h | 13814m | 5.8m/s | -62.1°C | 9.5% | 159.3hPa | 0V | 00:00:00 | 00:00:00 | 00:00:00 | |
| PU1XMG-16 | 2026-09-02 12:07:05 | -22.75534 | -42.59159 | 77° | 161km/h | 13742m | 5.4m/s | -61.4°C | 9.4% | 161.3hPa | 0V | 00:00:00 | 00:00:00 | 00:00:00 | |
| PU1XMG-16 | 2026-09-02 12:06:59 | -22.75592 | -42.59412 | 77° | 157km/h | 13703m | 6.6m/s | -61.1°C | 9.1% | 162.2hPa | 0V | 00:00:00 | 00:00:00 | 00:00:00 | |
| PU1XMG-16 | 2026-09-02 12:06:54 | -22.75642 | -42.59623 | 76° | 162km/h | 13671m | 5.9m/s | -61.0°C | 8.7% | 163.0hPa | 0V | 00:00:00 | 00:00:00 | 00:00:00 | |
| PU1XMG-16 | 2026-09-02 12:06:49 | -22.75701 | -42.59884 | 78° | 162km/h | 13634m | 7.6m/s | -60.6°C | 8.9% | 164.0hPa | 0V | 00:00:00 | 00:00:00 | 00:00:00 | |
| PU1XMG-16 | 2026-09-02 12:06:44 | -22.75748 | -42.60102 | 78° | 162km/h | 13604m | 7.6m/s | -60.3°C | 8.8% | 164.8hPa | 0V | 00:00:00 | 00:00:00 | 00:00:00 | |
| PU1XMG-16 | 2026-09-02 12:06:37 | -22.75801 | -42.60358 | 79° | 161km/h | 13568m | 5.2m/s | -60.1°C | 8.5% | 165.7hPa | 0V | 00:00:00 | 00:00:00 | 00:00:00 | |
| PU1XMG-16 | 2026-09-02 12:06:33 | -22.75845 | -42.60576 | 78° | 164km/h | 13538m | 4.4m/s | -59.7°C | 8.3% | 166.5hPa | 0V | 00:00:00 | 00:00:00 | 00:00:00 | |
| PU1XMG-16 | 2026-09-02 12:06:27 | -22.75888 | -42.60794 | 80° | 162km/h | 13507m | 5.3m/s | -59.5°C | 8.1% | 167.3hPa | 0V | 00:00:00 | 00:00:00 | 00:00:00 | |
| PU1XMG-16 | 2026-09-02 12:06:22 | -22.75928 | -42.61011 | 79° | 162km/h | 13476m | 7.9m/s | -59.3°C | 7.9% | 168.2hPa | 0V | 00:00:00 | 00:00:00 | 00:00:00 | |
| PU1XMG-16 | 2026-09-02 12:06:16 | -22.75981 | -42.61274 | 80° | 161km/h | 13440m | 5.0m/s | -58.9°C | 8.0% | 169.2hPa | 0V | 00:00:00 | 00:00:00 | 00:00:00 | |
| PU1XMG-16 | 2026-09-02 12:06:11 | -22.76017 | -42.61493 | 80° | 164km/h | 13409m | 4.8m/s | -58.7°C | 7.9% | 170.1hPa | 0V | 00:00:00 | 00:00:00 | 00:00:00 | |
| PU1XMG-16 | 2026-09-02 12:05:59 | -22.76118 | -42.62012 | 80° | 155km/h | 13333m | 5.0m/s | -58.1°C | 7.4% | 172.1hPa | 0V | 00:00:00 | 00:00:00 | 00:00:00 | |
| PU1XMG-16 | 2026-09-02 12:05:54 | -22.76156 | -42.62223 | 80° | 159km/h | 13300m | 8.8m/s | -57.8°C | 7.4% | 172.9hPa | 0V | 00:00:00 | 00:00:00 | 00:00:00 | |
| PU1XMG-16 | 2026-09-02 12:05:48 | -22.76200 | -42.62484 | 82° | 161km/h | 13265m | 4.0m/s | -57.5°C | 7.6% | 173.9hPa | 0V | 00:00:00 | 00:00:00 | 00:00:00 | |
| PU1XMG-16 | 2026-09-02 12:05:44 | -22.76233 | -42.62703 | 81° | 161km/h | 13236m | 5.2m/s | -57.4°C | 7.4% | 174.8hPa | 0V | 00:00:00 | 00:00:00 | 00:00:00 | |
| PU1XMG-16 | 2026-09-02 12:04:54 | -22.76544 | -42.64863 | 80° | 173km/h | 12953m | 5.2m/s | -55.5°C | 7.2% | 182.7hPa | 0V | 00:00:00 | 00:00:00 | 00:00:00 | |
| PU1XMG-16 | 2026-09-02 12:04:48 | -22.76587 | -42.65126 | 81° | 157km/h | 12920m | 6.5m/s | -55.3°C | 7.1% | 183.6hPa | 0V | 00:00:00 | 00:00:00 | 00:00:00 | |
| PU1XMG-16 | 2026-09-02 12:04:43 | -22.76620 | -42.65339 | 82° | 161km/h | 12890m | 8.7m/s | -55.1°C | 6.9% | 184.5hPa | 0V | 00:00:00 | 00:00:00 | 00:00:00 | |
| PU1XMG-16 | 2026-09-02 12:04:37 | -22.76663 | -42.65600 | 80° | 161km/h | 12853m | 4.4m/s | -54.8°C | 6.8% | 185.6hPa | 0V | 00:00:00 | 00:00:00 | 00:00:00 | |
| PU1XMG-16 | 2026-09-02 12:04:31 | -22.76709 | -42.65860 | 81° | 161km/h | 12815m | 6.7m/s | -54.5°C | 6.9% | 186.6hPa | 0V | 00:00:00 | 00:00:00 | 00:00:00 | |
| PU1XMG-16 | 2026-09-02 12:04:26 | -22.76749 | -42.66118 | 81° | 161km/h | 12777m | 7.0m/s | -54.4°C | 6.8% | 187.7hPa | 0V | 00:00:00 | 00:00:00 | 00:00:00 | |
| PU1XMG-16 | 2026-09-02 12:04:20 | -22.76783 | -42.66338 | 81° | 162km/h | 12748m | 5.8m/s | -54.1°C | 6.9% | 188.6hPa | 0V | 00:00:00 | 00:00:00 | 00:00:00 | |
| PU1XMG-16 | 2026-09-02 12:04:15 | -22.76825 | -42.66596 | 82° | 162km/h | 12709m | 7.7m/s | -53.7°C | 6.6% | 189.8hPa | 0V | 00:00:00 | 00:00:00 | 00:00:00 | |
| PU1XMG-16 | 2026-09-02 12:04:08 | -22.76864 | -42.66866 | 83° | 166km/h | 12671m | 4.7m/s | -53.3°C | 6.4% | 190.9hPa | 0V | 00:00:00 | 00:00:00 | 00:00:00 | |
| PU1XMG-16 | 2026-09-02 12:04:02 | -22.76900 | -42.67134 | 81° | 164km/h | 12639m | 5.5m/s | -53.1°C | 6.8% | 191.8hPa | 0V | 00:00:00 | 00:00:00 | 00:00:00 | |
| PU1XMG-16 | 2026-09-02 12:03:57 | -22.76937 | -42.67358 | 81° | 166km/h | 12611m | 6.4m/s | -53.0°C | 6.9% | 192.6hPa | 0V | 00:00:00 | 00:00:00 | 00:00:00 | |
| PU1XMG-16 | 2026-09-02 12:03:49 | -22.76989 | -42.67701 | 81° | 161km/h | 12569m | 5.3m/s | -52.6°C | 6.5% | 193.9hPa | 0V | 00:00:00 | 00:00:00 | 00:00:00 | |
| PU1XMG-16 | 2026-09-02 12:03:43 | -22.77042 | -42.67968 | 78° | 164km/h | 12536m | 4.6m/s | -52.4°C | 6.7% | 194.9hPa | 0V | 00:00:00 | 00:00:00 | 00:00:00 | |
| PU1XMG-16 | 2026-09-02 12:03:37 | -22.77092 | -42.68220 | 80° | 164km/h | 12501m | 4.4m/s | -52.0°C | 6.4% | 196.0hPa | 0V | 00:00:00 | 00:00:00 | 00:00:00 | |
| PU1XMG-16 | 2026-09-02 12:03:31 | -22.77142 | -42.68489 | 76° | 157km/h | 12463m | 5.0m/s | -51.7°C | 6.3% | 197.1hPa | 0V | 00:00:00 | 00:00:00 | 00:00:00 | |
| PU1XMG-16 | 2026-09-02 12:03:24 | -22.77213 | -42.68780 | 79° | 162km/h | 12416m | 7.2m/s | -51.2°C | 6.0% | 198.5hPa | 0V | 00:00:00 | 00:00:00 | 00:00:00 | |
| PU1XMG-16 | 2026-09-02 12:03:17 | -22.77281 | -42.69079 | 75° | 161km/h | 12368m | 7.7m/s | -50.8°C | 6.1% | 200.0hPa | 0V | 00:00:00 | 00:00:00 | 00:00:00 | |
| PU1XMG-16 | 2026-09-02 12:03:11 | -22.77345 | -42.69324 | 75° | 148km/h | 12328m | 8.1m/s | -50.4°C | 5.7% | 201.2hPa | 0V | 00:00:00 | 00:00:00 | 00:00:00 | |
| PU1XMG-16 | 2026-09-02 12:03:05 | -22.77403 | -42.69565 | 77° | 162km/h | 12288m | 5.4m/s | -50.2°C | 6.0% | 202.4hPa | 0V | 00:00:00 | 00:00:00 | 00:00:00 | |
| PU1XMG-16 | 2026-09-02 12:02:58 | -22.77482 | -42.69862 | 74° | 157km/h | 12242m | 9.7m/s | -49.8°C | 5.5% | 203.9hPa | 0V | 00:00:00 | 00:00:00 | 00:00:00 | |
| PU1XMG-16 | 2026-09-02 12:02:46 | -22.77619 | -42.70366 | 74° | 155km/h | 12170m | 5.7m/s | -49.2°C | 5.7% | 206.1hPa | 0V | 00:00:00 | 00:00:00 | 00:00:00 | |
| PU1XMG-16 | 2026-09-02 12:02:40 | -22.77693 | -42.70620 | 72° | 166km/h | 12132m | 6.5m/s | -49.0°C | 5.4% | 207.3hPa | 0V | 00:00:00 | 00:00:00 | 00:00:00 | |
| PU1XMG-16 | 2026-09-02 12:02:35 | -22.77771 | -42.70875 | 72° | 162km/h | 12094m | 6.3m/s | -48.6°C | 5.7% | 208.5hPa | 0V | 00:00:00 | 00:00:00 | 00:00:00 | |
| PU1XMG-16 | 2026-09-02 12:02:29 | -22.77839 | -42.71087 | 71° | 168km/h | 12062m | 6.0m/s | -48.5°C | 5.2% | 209.5hPa | 0V | 00:00:00 | 00:00:00 | 00:00:00 | |
| PU1XMG-16 | 2026-09-02 12:02:25 | -22.77911 | -42.71306 | 72° | 168km/h | 12033m | 6.2m/s | -48.1°C | 5.5% | 210.5hPa | 0V | 00:00:00 | 00:00:00 | 00:00:00 | |
| PU1XMG-16 | 2026-09-02 12:02:20 | -22.77979 | -42.71522 | 73° | 164km/h | 12000m | 5.8m/s | -48.0°C | 5.5% | 211.6hPa | 0V | 00:00:00 | 00:00:00 | 00:00:00 | |
| PU1XMG-16 | 2026-09-02 12:02:13 | -22.78062 | -42.71774 | 71° | 161km/h | 11959m | 5.4m/s | -47.7°C | 5.6% | 212.9hPa | 0V | 00:00:00 | 00:00:00 | 00:00:00 | |
| PU1XMG-16 | 2026-09-02 12:02:09 | -22.78132 | -42.71983 | 71° | 162km/h | 11926m | 7.0m/s | -47.7°C | 5.5% | 213.9hPa | 0V | 00:00:00 | 00:00:00 | 00:00:00 | |
| PU1XMG-16 | 2026-09-02 12:02:00 | -22.78253 | -42.72321 | 70° | 168km/h | 11874m | 6.7m/s | -47.1°C | 5.6% | 215.6hPa | 0V | 00:00:00 | 00:00:00 | 00:00:00 | |
| PU1XMG-16 | 2026-09-02 12:01:56 | -22.78325 | -42.72532 | 72° | 161km/h | 11845m | 6.0m/s | -47.0°C | 5.3% | 216.6hPa | 0V | 00:00:00 | 00:00:00 | 00:00:00 | |
| PU1XMG-16 | 2026-09-02 12:01:50 | -22.78406 | -42.72787 | 73° | 172km/h | 11813m | 5.1m/s | -46.7°C | 5.4% | 217.6hPa | 0V | 00:00:00 | 00:00:00 | 00:00:00 | |
| PU1XMG-16 | 2026-09-02 12:01:45 | -22.78474 | -42.73008 | 72° | 166km/h | 11785m | 5.8m/s | -46.5°C | 5.2% | 218.6hPa | 0V | 00:00:00 | 00:00:00 | 00:00:00 | |
| PU1XMG-16 | 2026-09-02 12:01:38 | -22.78569 | -42.73310 | 71° | 170km/h | 11744m | 5.1m/s | -46.2°C | 5.2% | 219.9hPa | 0V | 00:00:00 | 00:00:00 | 00:00:00 | |
| PU1XMG-16 | 2026-09-02 12:01:33 | -22.78639 | -42.73533 | 74° | 172km/h | 11714m | 6.7m/s | -46.0°C | 5.3% | 220.9hPa | 0V | 00:00:00 | 00:00:00 | 00:00:00 | |
| PU1XMG-16 | 2026-09-02 12:01:24 | -22.78754 | -42.73919 | 73° | 168km/h | 11653m | 9.5m/s | -45.6°C | 5.1% | 222.9hPa | 0V | 00:00:00 | 00:00:00 | 00:00:00 | |
| PU1XMG-16 | 2026-09-02 12:01:17 | -22.78825 | -42.74190 | 77° | 177km/h | 11614m | 8.4m/s | -45.3°C | 5.1% | 224.2hPa | 0V | 00:00:00 | 00:00:00 | 00:00:00 | |
| PU1XMG-16 | 2026-09-02 12:01:12 | -22.78883 | -42.74414 | 74° | 162km/h | 11587m | 6.8m/s | -45.1°C | 5.0% | 225.1hPa | 0V | 00:00:00 | 00:00:00 | 00:00:00 | |
| PU1XMG-16 | 2026-09-02 12:01:08 | -22.78947 | -42.74628 | 73° | 166km/h | 11555m | 6.0m/s | -44.8°C | 5.0% | 226.3hPa | 0V | 00:00:00 | 00:00:00 | 00:00:00 | |
| PU1XMG-16 | 2026-09-02 12:01:01 | -22.79020 | -42.74891 | 73° | 170km/h | 11521m | 5.6m/s | -44.5°C | 4.8% | 227.4hPa | 0V | 00:00:00 | 00:00:00 | 00:00:00 | |
| PU1XMG-16 | 2026-09-02 12:00:55 | -22.79097 | -42.75156 | 73° | 168km/h | 11486m | 6.0m/s | -44.2°C | 4.8% | 228.6hPa | 0V | 00:00:00 | 00:00:00 | 00:00:00 | |
| PU1XMG-16 | 2026-09-02 12:00:51 | -22.79158 | -42.75367 | 74° | 161km/h | 11460m | 6.8m/s | -44.0°C | 4.9% | 229.5hPa | 0V | 00:00:00 | 00:00:00 | 00:00:00 | |
| PU1XMG-16 | 2026-09-02 12:00:46 | -22.79219 | -42.75585 | 75° | 168km/h | 11432m | 6.9m/s | -43.8°C | 5.4% | 230.5hPa | 0V | 00:00:00 | 00:00:00 | 00:00:00 | |
| PU1XMG-16 | 2026-09-02 12:00:41 | -22.79280 | -42.75801 | 75° | 161km/h | 11406m | 4.1m/s | -43.9°C | 5.8% | 231.4hPa | 0V | 00:00:00 | 00:00:00 | 00:00:00 | |
| PU1XMG-16 | 2026-09-02 12:00:36 | -22.79335 | -42.76007 | 75° | 155km/h | 11381m | 4.0m/s | -43.7°C | 6.3% | 232.2hPa | 0V | 00:00:00 | 00:00:00 | 00:00:00 | |
| PU1XMG-16 | 2026-09-02 12:00:30 | -22.79415 | -42.76261 | 70° | 175km/h | 11351m | 7.2m/s | -43.5°C | 7.0% | 233.2hPa | 0V | 00:00:00 | 00:00:00 | 00:00:00 | |
| PU1XMG-16 | 2026-09-02 12:00:24 | -22.79486 | -42.76523 | 78° | 170km/h | 11312m | 7.3m/s | -43.2°C | 7.0% | 234.6hPa | 0V | 00:00:00 | 00:00:00 | 00:00:00 | |
| PU1XMG-16 | 2026-09-02 12:00:18 | -22.79549 | -42.76752 | 73° | 168km/h | 11276m | 4.8m/s | -42.7°C | 7.0% | 235.9hPa | 0V | 00:00:00 | 00:00:00 | 00:00:00 | |
| PU1XMG-16 | 2026-09-02 12:00:13 | -22.79617 | -42.77010 | 78° | 155km/h | 11239m | 8.9m/s | -42.5°C | 6.7% | 237.2hPa | 0V | 00:00:00 | 00:00:00 | 00:00:00 | |
| PU1XMG-16 | 2026-09-02 12:00:07 | -22.79677 | -42.77275 | 77° | 177km/h | 11202m | 8.5m/s | -42.1°C | 6.9% | 238.5hPa | 0V | 00:00:00 | 00:00:00 | 00:00:00 | |
| PU1XMG-16 | 2026-09-02 12:00:00 | -22.79727 | -42.77549 | 79° | 173km/h | 11160m | 5.6m/s | -41.8°C | 6.9% | 240.0hPa | 0V | 00:00:00 | 00:00:00 | 00:00:00 | |
| PU1XMG-16 | 2026-09-02 11:59:54 | -22.79787 | -42.77830 | 78° | 175km/h | 11122m | 6.5m/s | -41.4°C | 6.8% | 241.2hPa | 0V | 00:00:00 | 00:00:00 | 00:00:00 | |
| PU1XMG-16 | 2026-09-02 11:59:50 | -22.79837 | -42.78059 | 78° | 166km/h | 11092m | 6.3m/s | -41.1°C | 6.6% | 242.4hPa | 0V | 00:00:00 | 00:00:00 | 00:00:00 | |
| PU1XMG-16 | 2026-09-02 11:59:45 | -22.79888 | -42.78284 | 77° | 172km/h | 11063m | 4.1m/s | -40.8°C | 6.8% | 243.3hPa | 0V | 00:00:00 | 00:00:00 | 00:00:00 | |
| PU1XMG-16 | 2026-09-02 11:59:39 | -22.79942 | -42.78522 | 78° | 179km/h | 11037m | 5.2m/s | -40.5°C | 7.2% | 244.3hPa | 0V | 00:00:00 | 00:00:00 | 00:00:00 | |
| PU1XMG-16 | 2026-09-02 11:59:35 | -22.80002 | -42.78798 | 78° | 170km/h | 11003m | 6.3m/s | -40.2°C | 7.1% | 245.5hPa | 0V | 00:00:00 | 00:00:00 | 00:00:00 | |
| PU1XMG-16 | 2026-09-02 11:59:28 | -22.80061 | -42.79069 | 76° | 170km/h | 10969m | 7.6m/s | -39.9°C | 6.7% | 246.7hPa | 0V | 00:00:00 | 00:00:00 | 00:00:00 | |
| PU1XMG-16 | 2026-09-02 11:59:21 | -22.80138 | -42.79390 | 77° | 173km/h | 10929m | 6.3m/s | -39.5°C | 6.6% | 248.2hPa | 0V | 00:00:00 | 00:00:00 | 00:00:00 | |
| PU1XMG-16 | 2026-09-02 11:59:15 | -22.80194 | -42.79616 | 77° | 168km/h | 10901m | 7.4m/s | -39.2°C | 6.2% | 249.2hPa | 0V | 00:00:00 | 00:00:00 | 00:00:00 | |
| PU1XMG-16 | 2026-09-02 11:59:09 | -22.80252 | -42.79896 | 79° | 175km/h | 10862m | 5.6m/s | -38.8°C | 6.1% | 250.7hPa | 0V | 00:00:00 | 00:00:00 | 00:00:00 | |
| PU1XMG-16 | 2026-09-02 11:59:04 | -22.80296 | -42.80130 | 78° | 164km/h | 10830m | 4.0m/s | -38.5°C | 5.8% | 251.8hPa | 0V | 00:00:00 | 00:00:00 | 00:00:00 | |
| PU1XMG-16 | 2026-09-02 11:58:58 | -22.80356 | -42.80400 | 76° | 173km/h | 10790m | 8.2m/s | -38.1°C | 5.5% | 253.3hPa | 0V | 00:00:00 | 00:00:00 | 00:00:00 | |
| PU1XMG-16 | 2026-09-02 11:58:53 | -22.80410 | -42.80633 | 78° | 175km/h | 10760m | 6.0m/s | -37.8°C | 5.2% | 254.5hPa | 0V | 00:00:00 | 00:00:00 | 00:00:00 | |
| PU1XMG-16 | 2026-09-02 11:58:48 | -22.80469 | -42.80858 | 73° | 168km/h | 10729m | 4.5m/s | -37.5°C | 5.3% | 255.6hPa | 0V | 00:00:00 | 00:00:00 | 00:00:00 | |
| PU1XMG-16 | 2026-09-02 11:58:43 | -22.80533 | -42.81134 | 82° | 186km/h | 10696m | 6.8m/s | -37.2°C | 5.0% | 256.8hPa | 0V | 00:00:00 | 00:00:00 | 00:00:00 | |
| PU1XMG-16 | 2026-09-02 11:58:37 | -22.80574 | -42.81377 | 77° | 172km/h | 10668m | 10.1m/s | -37.0°C | 4.8% | 257.8hPa | 0V | 00:00:00 | 00:00:00 | 00:00:00 | |
| PU1XMG-16 | 2026-09-02 11:58:33 | -22.80630 | -42.81597 | 76° | 166km/h | 10629m | 8.6m/s | -36.6°C | 4.7% | 259.3hPa | 0V | 00:00:00 | 00:00:00 | 00:00:00 | |
| PU1XMG-16 | 2026-09-02 11:58:26 | -22.80692 | -42.81869 | 77° | 177km/h | 10590m | 6.9m/s | -36.2°C | 4.8% | 260.6hPa | 0V | 00:00:00 | 00:00:00 | 00:00:00 | |
| PU1XMG-16 | 2026-09-02 11:58:21 | -22.80757 | -42.82153 | 76° | 173km/h | 10559m | 5.2m/s | -35.9°C | 4.7% | 261.9hPa | 0V | 00:00:00 | 00:00:00 | 00:00:00 | |
| PU1XMG-16 | 2026-09-02 11:58:16 | -22.80807 | -42.82380 | 78° | 172km/h | 10527m | 6.4m/s | -35.6°C | 4.5% | 263.1hPa | 0V | 00:00:00 | 00:00:00 | 00:00:00 | |
| PU1XMG-16 | 2026-09-02 11:58:10 | -22.80867 | -42.82657 | 77° | 173km/h | 10494m | 4.9m/s | -35.3°C | 4.5% | 264.3hPa | 0V | 00:00:00 | 00:00:00 | 00:00:00 | |
| PU1XMG-16 | 2026-09-02 11:58:05 | -22.80922 | -42.82880 | 76° | 168km/h | 10467m | 6.1m/s | -35.0°C | 4.5% | 265.4hPa | 0V | 00:00:00 | 00:00:00 | 00:00:00 | |
| PU1XMG-16 | 2026-09-02 11:57:50 | -22.81090 | -42.83542 | 77° | 173km/h | 10362m | 6.3m/s | -34.0°C | 4.0% | 269.3hPa | 0V | 00:00:00 | 00:00:00 | 00:00:00 | |
| PU1XMG-16 | 2026-09-02 11:57:41 | -22.81189 | -42.83953 | 74° | 172km/h | 10309m | 4.8m/s | -33.5°C | 3.9% | 271.2hPa | 0V | 00:00:00 | 00:00:00 | 00:00:00 | |
| PU1XMG-16 | 2026-09-02 11:57:35 | -22.81255 | -42.84187 | 76° | 177km/h | 10287m | 5.2m/s | -33.3°C | 3.9% | 272.1hPa | 0V | 00:00:00 | 00:00:00 | 00:00:00 | |
| PU1XMG-16 | 2026-09-02 11:57:30 | -22.81314 | -42.84463 | 79° | 162km/h | 10252m | 6.3m/s | -33.0°C | 4.0% | 273.5hPa | 0V | 00:00:00 | 00:00:00 | 00:00:00 | |
| PU1XMG-16 | 2026-09-02 11:57:24 | -22.81366 | -42.84681 | 74° | 175km/h | 10225m | 5.5m/s | -32.7°C | 4.0% | 274.5hPa | 0V | 00:00:00 | 00:00:00 | 00:00:00 | |
| PU1XMG-16 | 2026-09-02 11:57:20 | -22.81427 | -42.84908 | 76° | 164km/h | 10189m | 5.3m/s | -32.4°C | 4.1% | 275.9hPa | 0V | 00:00:00 | 00:00:00 | 00:00:00 | |
| PU1XMG-16 | 2026-09-02 11:57:14 | -22.81481 | -42.85180 | 79° | 177km/h | 10154m | 5.6m/s | -32.0°C | 4.2% | 277.3hPa | 0V | 00:00:00 | 00:00:00 | 00:00:00 | |
| PU1XMG-16 | 2026-09-02 11:57:08 | -22.81536 | -42.85414 | 76° | 173km/h | 10131m | 3.7m/s | -31.8°C | 4.2% | 278.2hPa | 0V | 00:00:00 | 00:00:00 | 00:00:00 | |
| PU1XMG-16 | 2026-09-02 11:57:04 | -22.81590 | -42.85633 | 77° | 168km/h | 10108m | 3.0m/s | -31.6°C | 4.1% | 279.1hPa | 0V | 00:00:00 | 00:00:00 | 00:00:00 | |
| PU1XMG-16 | 2026-09-02 11:56:57 | -22.81654 | -42.85917 | 77° | 183km/h | 10080m | 6.6m/s | -31.3°C | 4.3% | 280.2hPa | 0V | 00:00:00 | 00:00:00 | 00:00:00 | |
| PU1XMG-16 | 2026-09-02 11:56:52 | -22.81729 | -42.86190 | 75° | 168km/h | 10051m | 4.9m/s | -31.0°C | 4.2% | 281.4hPa | 0V | 00:00:00 | 00:00:00 | 00:00:00 | |
| PU1XMG-16 | 2026-09-02 11:56:46 | -22.81788 | -42.86425 | 78° | 190km/h | 10017m | 7.5m/s | -30.7°C | 3.9% | 282.6hPa | 0V | 00:00:00 | 00:00:00 | 00:00:00 | |
| PU1XMG-16 | 2026-09-02 11:56:41 | -22.81860 | -42.86716 | 74° | 179km/h | 9970m | 8.6m/s | -30.3°C | 4.1% | 284.5hPa | 0V | 00:00:00 | 00:00:00 | 00:00:00 | |
| PU1XMG-16 | 2026-09-02 11:56:35 | -22.81918 | -42.86947 | 77° | 173km/h | 9941m | 6.4m/s | -30.0°C | 4.2% | 285.7hPa | 0V | 00:00:00 | 00:00:00 | 00:00:00 | |
| PU1XMG-16 | 2026-09-02 11:56:30 | -22.81988 | -42.87227 | 74° | 181km/h | 9910m | 4.5m/s | -29.8°C | 4.2% | 286.9hPa | 0V | 00:00:00 | 00:00:00 | 00:00:00 | |
| PU1XMG-16 | 2026-09-02 11:56:25 | -22.82048 | -42.87467 | 79° | 179km/h | 9881m | 4.4m/s | -29.5°C | 4.3% | 288.0hPa | 0V | 00:00:00 | 00:00:00 | 00:00:00 | |
| PU1XMG-16 | 2026-09-02 11:56:18 | -22.82106 | -42.87745 | 76° | 170km/h | 9843m | 7.0m/s | -29.3°C | 4.3% | 289.5hPa | 0V | 00:00:00 | 00:00:00 | 00:00:00 | |
| PU1XMG-16 | 2026-09-02 11:56:13 | -22.82165 | -42.87968 | 77° | 168km/h | 9810m | 7.3m/s | -29.0°C | 4.2% | 290.9hPa | 0V | 00:00:00 | 00:00:00 | 00:00:00 | |
| PU1XMG-16 | 2026-09-02 11:56:08 | -22.82213 | -42.88198 | 78° | 173km/h | 9777m | 6.7m/s | -28.7°C | 3.9% | 292.3hPa | 0V | 00:00:00 | 00:00:00 | 00:00:00 | |
| PU1XMG-16 | 2026-09-02 11:56:03 | -22.82283 | -42.88467 | 73° | 172km/h | 9734m | 6.3m/s | -28.5°C | 3.7% | 294.0hPa | 0V | 00:00:00 | 00:00:00 | 00:00:00 | |
| PU1XMG-16 | 2026-09-02 11:55:57 | -22.82357 | -42.88747 | 77° | 179km/h | 9696m | 4.5m/s | -28.2°C | 3.7% | 295.6hPa | 0V | 00:00:00 | 00:00:00 | 00:00:00 | |
| PU1XMG-16 | 2026-09-02 11:55:52 | -22.82419 | -42.88980 | 73° | 179km/h | 9665m | 9.5m/s | -27.9°C | 3.7% | 296.9hPa | 0V | 00:00:00 | 00:00:00 | 00:00:00 | |
| PU1XMG-16 | 2026-09-02 11:55:47 | -22.82491 | -42.89219 | 74° | 177km/h | 9633m | 6.1m/s | -27.6°C | 3.6% | 298.3hPa | 0V | 00:00:00 | 00:00:00 | 00:00:00 | |
| PU1XMG-16 | 2026-09-02 11:55:41 | -22.82556 | -42.89444 | 71° | 170km/h | 9594m | 8.3m/s | -27.3°C | 3.4% | 299.9hPa | 0V | 00:00:00 | 00:00:00 | 00:00:00 | |
| PU1XMG-16 | 2026-09-02 11:55:37 | -22.82629 | -42.89669 | 73° | 181km/h | 9556m | 7.0m/s | -27.0°C | 2.8% | 301.4hPa | 0V | 00:00:00 | 00:00:00 | 00:00:00 | |
| PU1XMG-16 | 2026-09-02 11:55:30 | -22.82716 | -42.89946 | 71° | 179km/h | 9508m | 5.5m/s | -26.6°C | 2.2% | 303.4hPa | 0V | 00:00:00 | 00:00:00 | 00:00:00 | |
| PU1XMG-16 | 2026-09-02 11:55:25 | -22.82793 | -42.90177 | 72° | 179km/h | 9472m | 6.8m/s | -26.3°C | 2.0% | 304.9hPa | 0V | 00:00:00 | 00:00:00 | 00:00:00 | |
| PU1XMG-16 | 2026-09-02 11:55:20 | -22.82874 | -42.90408 | 69° | 181km/h | 9438m | 5.7m/s | -25.9°C | 1.8% | 306.4hPa | 0V | 00:00:00 | 00:00:00 | 00:00:00 | |
| PU1XMG-16 | 2026-09-02 11:55:15 | -22.82968 | -42.90687 | 72° | 179km/h | 9392m | 8.2m/s | -25.8°C | 1.7% | 308.2hPa | 0V | 00:00:00 | 00:00:00 | 00:00:00 | |
| PU1XMG-16 | 2026-09-02 11:55:10 | -22.83043 | -42.90915 | 71° | 175km/h | 9359m | 6.0m/s | -25.6°C | 1.7% | 309.7hPa | 0V | 00:00:00 | 00:00:00 | 00:00:00 | |
| PU1XMG-16 | 2026-09-02 11:55:04 | -22.83121 | -42.91147 | 70° | 183km/h | 9324m | 8.0m/s | -25.5°C | 1.7% | 311.1hPa | 0V | 00:00:00 | 00:00:00 | 00:00:00 | |
| PU1XMG-16 | 2026-09-02 11:54:59 | -22.83217 | -42.91416 | 67° | 175km/h | 9282m | 9.9m/s | -25.5°C | 1.7% | 312.9hPa | 0V | 00:00:00 | 00:00:00 | 00:00:00 | |
| PU1XMG-16 | 2026-09-02 11:54:53 | -22.83306 | -42.91638 | 70° | 177km/h | 9243m | 9.3m/s | -25.3°C | 1.9% | 314.8hPa | 0V | 00:00:00 | 00:00:00 | 00:00:00 | |
| PU1XMG-16 | 2026-09-02 11:54:46 | -22.83414 | -42.91960 | 71° | 177km/h | 9180m | 7.3m/s | -25.5°C | 2.2% | 317.5hPa | 0V | 00:00:00 | 00:00:00 | 00:00:00 | |
| PU1XMG-16 | 2026-09-02 11:54:40 | -22.83501 | -42.92231 | 72° | 173km/h | 9139m | 9.2m/s | -25.7°C | 2.3% | 319.4hPa | 0V | 00:00:00 | 00:00:00 | 00:00:00 | |
| PU1XMG-16 | 2026-09-02 11:54:35 | -22.83578 | -42.92456 | 68° | 177km/h | 9097m | 8.9m/s | -25.7°C | 2.6% | 321.3hPa | 0V | 00:00:00 | 00:00:00 | 00:00:00 | |
| PU1XMG-16 | 2026-09-02 11:54:30 | -22.83679 | -42.92730 | 71° | 183km/h | 9050m | 5.1m/s | -26.1°C | 2.8% | 323.3hPa | 0V | 00:00:00 | 00:00:00 | 00:00:00 | |
| PU1XMG-16 | 2026-09-02 11:54:24 | -22.83761 | -42.92957 | 67° | 173km/h | 9019m | 5.4m/s | -26.0°C | 2.8% | 324.8hPa | 0V | 00:00:00 | 00:00:00 | 00:00:00 | |
| PU1XMG-16 | 2026-09-02 11:54:13 | -22.83956 | -42.93427 | 67° | 172km/h | 8938m | 8.7m/s | -25.4°C | 2.6% | 328.4hPa | 0V | 00:00:00 | 00:00:00 | 00:00:00 | |
| PU1XMG-16 | 2026-09-02 11:54:07 | -22.84062 | -42.93685 | 65° | 168km/h | 8885m | 8.9m/s | -25.2°C | 2.6% | 330.7hPa | 0V | 00:00:00 | 00:00:00 | 00:00:00 | |
| PU1XMG-16 | 2026-09-02 11:54:03 | -22.84146 | -42.93886 | 66° | 153km/h | 8843m | 9.3m/s | -24.9°C | 2.5% | 332.6hPa | 0V | 00:00:00 | 00:00:00 | 00:00:00 | |
| PU1XMG-16 | 2026-09-02 11:53:58 | -22.84222 | -42.94087 | 70° | 155km/h | 8800m | 10.5m/s | -24.5°C | 2.4% | 334.6hPa | 0V | 00:00:00 | 00:00:00 | 00:00:00 | |
| PU1XMG-16 | 2026-09-02 11:53:51 | -22.84311 | -42.94329 | 68° | 153km/h | 8751m | 10.0m/s | -24.1°C | 2.3% | 336.8hPa | 0V | 00:00:00 | 00:00:00 | 00:00:00 | |
| PU1XMG-16 | 2026-09-02 11:53:47 | -22.84392 | -42.94520 | 68° | 153km/h | 8711m | 6.9m/s | -23.8°C | 2.2% | 338.7hPa | 0V | 00:00:00 | 00:00:00 | 00:00:00 | |
| PU1XMG-16 | 2026-09-02 11:53:41 | -22.84472 | -42.94767 | 73° | 157km/h | 8675m | 6.2m/s | -23.5°C | 2.1% | 340.4hPa | 0V | 00:00:00 | 00:00:00 | 00:00:00 | |
| PU1XMG-16 | 2026-09-02 11:53:35 | -22.84548 | -42.94960 | 68° | 146km/h | 8643m | 9.7m/s | -23.3°C | 2.0% | 341.9hPa | 0V | 00:00:00 | 00:00:00 | 00:00:00 | |
| PU1XMG-16 | 2026-09-02 11:53:29 | -22.84618 | -42.95184 | 70° | 131km/h | 8606m | 5.0m/s | -23.1°C | 2.0% | 343.7hPa | 0V | 00:00:00 | 00:00:00 | 00:00:00 | |
| PU1XMG-16 | 2026-09-02 11:53:25 | -22.84679 | -42.95370 | 71° | 161km/h | 8573m | 6.4m/s | -23.2°C | 1.9% | 345.1hPa | 0V | 00:00:00 | 00:00:00 | 00:00:00 | |
| PU1XMG-16 | 2026-09-02 11:53:20 | -22.84734 | -42.95577 | 77° | 162km/h | 8545m | 8.5m/s | -23.1°C | 1.8% | 346.3hPa | 0V | 00:00:00 | 00:00:00 | 00:00:00 | |
| PU1XMG-16 | 2026-09-02 11:53:14 | -22.84783 | -42.95810 | 81° | 131km/h | 8496m | 6.2m/s | -22.5°C | 1.8% | 348.8hPa | 0V | 00:00:00 | 00:00:00 | 00:00:00 | |
| PU1XMG-16 | 2026-09-02 11:53:08 | -22.84827 | -42.95988 | 71° | 133km/h | 8466m | 10.8m/s | -22.3°C | 1.8% | 350.2hPa | 0V | 00:00:00 | 00:00:00 | 00:00:00 | |
| PU1XMG-16 | 2026-09-02 11:53:03 | -22.84869 | -42.96160 | 81° | 144km/h | 8427m | 5.4m/s | -22.5°C | 1.8% | 352.1hPa | 0V | 00:00:00 | 00:00:00 | 00:00:00 | |
| PU1XMG-16 | 2026-09-02 11:52:57 | -22.84898 | -42.96386 | 87° | 130km/h | 8382m | 4.1m/s | -22.1°C | 1.8% | 354.3hPa | 0V | 00:00:00 | 00:00:00 | 00:00:00 | |
| PU1XMG-16 | 2026-09-02 11:52:46 | -22.84945 | -42.96757 | 92° | 141km/h | 8294m | 6.2m/s | -22.2°C | 1.8% | 358.5hPa | 0V | 00:00:00 | 00:00:00 | 00:00:00 | |
| PU1XMG-16 | 2026-09-02 11:52:41 | -22.84949 | -42.96933 | 92° | 113km/h | 8262m | 5.6m/s | -22.0°C | 1.8% | 360.0hPa | 0V | 00:00:00 | 00:00:00 | 00:00:00 | |
| PU1XMG-16 | 2026-09-02 11:52:35 | -22.84951 | -42.97141 | 84° | 124km/h | 8227m | 5.5m/s | -21.7°C | 1.8% | 361.6hPa | 0V | 00:00:00 | 00:00:00 | 00:00:00 | |
| PU1XMG-16 | 2026-09-02 11:52:30 | -22.84945 | -42.97343 | 99° | 141km/h | 8187m | 5.2m/s | -21.5°C | 1.8% | 363.5hPa | 0V | 00:00:00 | 00:00:00 | 00:00:00 | |
| PU1XMG-16 | 2026-09-02 11:52:23 | -22.84939 | -42.97559 | 87° | 126km/h | 8143m | 4.6m/s | -21.2°C | 1.8% | 365.8hPa | 0V | 00:00:00 | 00:00:00 | 00:00:00 | |
| PU1XMG-16 | 2026-09-02 11:52:17 | -22.84933 | -42.97785 | 94° | 137km/h | 8107m | 8.5m/s | -21.0°C | 1.8% | 367.5hPa | 0V | 00:00:00 | 00:00:00 | 00:00:00 | |
| PU1XMG-16 | 2026-09-02 11:52:12 | -22.84923 | -42.97948 | 100° | 119km/h | 8074m | 5.8m/s | -20.7°C | 1.8% | 369.1hPa | 0V | 00:00:00 | 00:00:00 | 00:00:00 | |
| PU1XMG-16 | 2026-09-02 11:52:07 | -22.84906 | -42.98119 | 94° | 119km/h | 8045m | 8.0m/s | -20.7°C | 1.8% | 370.6hPa | 0V | 00:00:00 | 00:00:00 | 00:00:00 | |
| PU1XMG-16 | 2026-09-02 11:52:02 | -22.84885 | -42.98280 | 100° | 122km/h | 8010m | 8.8m/s | -20.4°C | 1.9% | 372.3hPa | 0V | 00:00:00 | 00:00:00 | 00:00:00 | |
| PU1XMG-16 | 2026-09-02 11:51:57 | -22.84867 | -42.98444 | 99° | 119km/h | 7974m | 4.9m/s | -20.2°C | 1.9% | 374.2hPa | 0V | 00:00:00 | 00:00:00 | 00:00:00 | |
| PU1XMG-16 | 2026-09-02 11:51:51 | -22.84836 | -42.98651 | 109° | 131km/h | 7937m | 6.0m/s | -20.0°C | 1.9% | 376.2hPa | 0V | 00:00:00 | 00:00:00 | 00:00:00 | |
| PU1XMG-16 | 2026-09-02 11:51:47 | -22.84791 | -42.98813 | 102° | 124km/h | 7906m | 5.0m/s | -19.9°C | 2.0% | 377.8hPa | 0V | 00:00:00 | 00:00:00 | 00:00:00 | |
| PU1XMG-16 | 2026-09-02 11:51:41 | -22.84738 | -42.99022 | 109° | 126km/h | 7870m | 5.5m/s | -19.9°C | 2.2% | 379.7hPa | 0V | 00:00:00 | 00:00:00 | 00:00:00 | |
| PU1XMG-16 | 2026-09-02 11:51:35 | -22.84697 | -42.99195 | 105° | 131km/h | 7839m | 7.7m/s | -19.7°C | 2.3% | 381.2hPa | 0V | 00:00:00 | 00:00:00 | 00:00:00 | |
| PU1XMG-16 | 2026-09-02 11:51:30 | -22.84639 | -42.99413 | 110° | 137km/h | 7800m | 8.8m/s | -19.5°C | 2.4% | 383.2hPa | 0V | 00:00:00 | 00:00:00 | 00:00:00 | |
| PU1XMG-16 | 2026-09-02 11:51:25 | -22.84587 | -42.99584 | 107° | 142km/h | 7767m | 4.0m/s | -19.2°C | 2.3% | 384.9hPa | 0V | 00:00:00 | 00:00:00 | 00:00:00 | |
| PU1XMG-16 | 2026-09-02 11:51:19 | -22.84538 | -42.99770 | 107° | 137km/h | 7737m | 9.4m/s | -19.0°C | 2.3% | 386.4hPa | 0V | 00:00:00 | 00:00:00 | 00:00:00 | |
| PU1XMG-16 | 2026-09-02 11:51:13 | -22.84480 | -42.99986 | 106° | 135km/h | 7698m | 5.1m/s | -18.6°C | 2.4% | 388.4hPa | 0V | 00:00:00 | 00:00:00 | 00:00:00 | |
| PU1XMG-16 | 2026-09-02 11:51:09 | -22.84428 | -43.00171 | 108° | 135km/h | 7670m | 5.7m/s | -18.4°C | 2.4% | 389.9hPa | 0V | 00:00:00 | 00:00:00 | 00:00:00 | |
| PU1XMG-16 | 2026-09-02 11:51:03 | -22.84371 | -43.00384 | 107° | 141km/h | 7643m | 5.2m/s | -18.2°C | 2.4% | 391.4hPa | 0V | 00:00:00 | 00:00:00 | 00:00:00 | |
| PU1XMG-16 | 2026-09-02 11:50:58 | -22.84306 | -43.00561 | 117° | 141km/h | 7617m | 4.6m/s | -18.0°C | 2.3% | 392.7hPa | 0V | 00:00:00 | 00:00:00 | 00:00:00 | |
| PU1XMG-16 | 2026-09-02 11:50:52 | -22.84229 | -43.00780 | 108° | 148km/h | 7579m | 8.9m/s | -17.7°C | 2.3% | 394.6hPa | 0V | 00:00:00 | 00:00:00 | 00:00:00 | |
| PU1XMG-16 | 2026-09-02 11:50:46 | -22.84171 | -43.00973 | 111° | 137km/h | 7548m | 6.4m/s | -17.4°C | 2.2% | 396.2hPa | 0V | 00:00:00 | 00:00:00 | 00:00:00 | |
| PU1XMG-16 | 2026-09-02 11:50:41 | -22.84105 | -43.01185 | 108° | 146km/h | 7509m | 8.2m/s | -17.0°C | 2.2% | 398.1hPa | 0V | 00:00:00 | 00:00:00 | 00:00:00 | |
| PU1XMG-16 | 2026-09-02 11:50:35 | -22.84048 | -43.01374 | 112° | 144km/h | 7479m | 5.6m/s | -16.8°C | 2.2% | 399.9hPa | 0V | 00:00:00 | 00:00:00 | 00:00:00 | |
| PU1XMG-16 | 2026-09-02 11:50:30 | -22.83963 | -43.01595 | 111° | 157km/h | 7449m | 6.1m/s | -16.5°C | 2.2% | 401.4hPa | 0V | 00:00:00 | 00:00:00 | 00:00:00 | |
| PU1XMG-16 | 2026-09-02 11:50:24 | -22.83904 | -43.01792 | 110° | 142km/h | 7414m | 5.5m/s | -16.2°C | 2.2% | 403.3hPa | 0V | 00:00:00 | 00:00:00 | 00:00:00 | |
| PU1XMG-16 | 2026-09-02 11:50:19 | -22.83833 | -43.02022 | 108° | 151km/h | 7374m | 10.9m/s | -16.0°C | 2.1% | 405.5hPa | 0V | 00:00:00 | 00:00:00 | 00:00:00 | |
| PU1XMG-16 | 2026-09-02 11:50:07 | -22.83703 | -43.02466 | 112° | 161km/h | 7296m | 5.5m/s | -15.4°C | 2.1% | 409.4hPa | 0V | 00:00:00 | 00:00:00 | 00:00:00 | |
| PU1XMG-16 | 2026-09-02 11:50:02 | -22.83631 | -43.02711 | 109° | 162km/h | 7257m | 6.8m/s | -15.2°C | 2.1% | 411.7hPa | 0V | 00:00:00 | 00:00:00 | 00:00:00 | |
| PU1XMG-16 | 2026-09-02 11:49:56 | -22.83569 | -43.02922 | 109° | 153km/h | 7232m | 5.4m/s | -15.1°C | 2.2% | 413.3hPa | 0V | 00:00:00 | 00:00:00 | 00:00:00 | |
| PU1XMG-16 | 2026-09-02 11:49:52 | -22.83522 | -43.03120 | 107° | 144km/h | 7200m | 7.8m/s | -14.9°C | 2.1% | 415.0hPa | 0V | 00:00:00 | 00:00:00 | 00:00:00 | |
| PU1XMG-16 | 2026-09-02 11:49:47 | -22.83457 | -43.03323 | 110° | 168km/h | 7166m | 7.7m/s | -14.7°C | 2.1% | 416.8hPa | 0V | 00:00:00 | 00:00:00 | 00:00:00 | |
| PU1XMG-16 | 2026-09-02 11:49:42 | -22.83399 | -43.03542 | 103° | 159km/h | 7137m | 6.4m/s | -14.5°C | 2.1% | 418.4hPa | 0V | 00:00:00 | 00:00:00 | 00:00:00 | |
| PU1XMG-16 | 2026-09-02 11:49:35 | -22.83337 | -43.03784 | 110° | 151km/h | 7103m | 5.2m/s | -14.5°C | 2.1% | 420.2hPa | 0V | 00:00:00 | 00:00:00 | 00:00:00 | |
| PU1XMG-16 | 2026-09-02 11:49:31 | -22.83276 | -43.03991 | 108° | 166km/h | 7076m | 7.4m/s | -14.4°C | 2.2% | 421.8hPa | 0V | 00:00:00 | 00:00:00 | 00:00:00 | |
| PU1XMG-16 | 2026-09-02 11:49:25 | -22.83233 | -43.04201 | 101° | 148km/h | 7045m | 5.1m/s | -14.3°C | 2.2% | 423.5hPa | 0V | 00:00:00 | 00:00:00 | 00:00:00 | |
| PU1XMG-16 | 2026-09-02 11:49:20 | -22.83171 | -43.04466 | 107° | 177km/h | 7009m | 6.5m/s | -14.4°C | 2.2% | 425.4hPa | 0V | 00:00:00 | 00:00:00 | 00:00:00 | |
| PU1XMG-16 | 2026-09-02 11:49:14 | -22.83115 | -43.04693 | 107° | 172km/h | 6984m | 8.0m/s | -14.5°C | 2.2% | 426.8hPa | 0V | 00:00:00 | 00:00:00 | 00:00:00 | |
| PU1XMG-16 | 2026-09-02 11:49:09 | -22.83067 | -43.04920 | 100° | 161km/h | 6959m | 7.0m/s | -14.9°C | 2.2% | 428.2hPa | 0V | 00:00:00 | 00:00:00 | 00:00:00 | |
| PU1XMG-16 | 2026-09-02 11:49:04 | -22.83032 | -43.05136 | 101° | 166km/h | 6928m | 5.3m/s | -14.9°C | 2.2% | 430.0hPa | 0V | 00:00:00 | 00:00:00 | 00:00:00 | |
| PU1XMG-16 | 2026-09-02 11:48:59 | -22.83000 | -43.05362 | 97° | 164km/h | 6901m | 5.7m/s | -14.9°C | 2.1% | 431.4hPa | 0V | 00:00:00 | 00:00:00 | 00:00:00 | |
| PU1XMG-16 | 2026-09-02 11:48:53 | -22.82973 | -43.05625 | 94° | 164km/h | 6863m | 6.1m/s | -15.2°C | 2.0% | 433.5hPa | 0V | 00:00:00 | 00:00:00 | 00:00:00 | |
| PU1XMG-16 | 2026-09-02 11:48:48 | -22.82951 | -43.05849 | 99° | 168km/h | 6831m | 5.0m/s | -15.6°C | 1.9% | 435.4hPa | 0V | 00:00:00 | 00:00:00 | 00:00:00 | |
| PU1XMG-16 | 2026-09-02 11:48:43 | -22.82920 | -43.06071 | 98° | 159km/h | 6803m | 8.5m/s | -15.3°C | 1.9% | 437.0hPa | 0V | 00:00:00 | 00:00:00 | 00:00:00 | |
| PU1XMG-16 | 2026-09-02 11:48:38 | -22.82912 | -43.06316 | 95° | 142km/h | 6761m | 8.4m/s | -15.3°C | 1.8% | 439.5hPa | 0V | 00:00:00 | 00:00:00 | 00:00:00 | |
| PU1XMG-16 | 2026-09-02 11:48:31 | -22.82891 | -43.06556 | 102° | 133km/h | 6716m | 6.8m/s | -15.5°C | 1.8% | 442.1hPa | 0V | 00:00:00 | 00:00:00 | 00:00:00 | |
| PU1XMG-16 | 2026-09-02 11:48:22 | -22.82855 | -43.06916 | 95° | 122km/h | 6643m | 6.1m/s | -15.6°C | 1.8% | 446.4hPa | 0V | 00:00:00 | 00:00:00 | 00:00:00 | |
| PU1XMG-16 | 2026-09-02 11:48:16 | -22.82832 | -43.07094 | 102° | 142km/h | 6604m | 10.7m/s | -15.4°C | 1.8% | 448.8hPa | 0V | 00:00:00 | 00:00:00 | 00:00:00 | |
| PU1XMG-16 | 2026-09-02 11:48:10 | -22.82804 | -43.07295 | 98° | 117km/h | 6562m | 10.4m/s | -15.3°C | 1.8% | 451.1hPa | 0V | 00:00:00 | 00:00:00 | 00:00:00 | |
| PU1XMG-16 | 2026-09-02 11:48:06 | -22.82773 | -43.07461 | 103° | 117km/h | 6526m | 5.6m/s | -15.1°C | 1.9% | 453.5hPa | 0V | 00:00:00 | 00:00:00 | 00:00:00 | |
| PU1XMG-16 | 2026-09-02 11:48:01 | -22.82734 | -43.07621 | 104° | 128km/h | 6491m | 7.0m/s | -15.2°C | 2.0% | 455.4hPa | 0V | 00:00:00 | 00:00:00 | 00:00:00 | |
| PU1XMG-16 | 2026-09-02 11:47:55 | -22.82708 | -43.07783 | 102° | 119km/h | 6457m | 7.9m/s | -14.9°C | 1.9% | 457.5hPa | 0V | 00:00:00 | 00:00:00 | 00:00:00 | |
| PU1XMG-16 | 2026-09-02 11:47:49 | -22.82666 | -43.07978 | 109° | 108km/h | 6416m | 4.6m/s | -14.5°C | 2.0% | 460.1hPa | 0V | 00:00:00 | 00:00:00 | 00:00:00 | |
| PU1XMG-16 | 2026-09-02 11:47:45 | -22.82618 | -43.08129 | 106° | 124km/h | 6383m | 5.3m/s | -14.2°C | 2.0% | 462.1hPa | 0V | 00:00:00 | 00:00:00 | 00:00:00 | |
| PU1XMG-16 | 2026-09-02 11:47:39 | -22.82572 | -43.08286 | 115° | 119km/h | 6355m | 5.6m/s | -13.9°C | 2.0% | 464.0hPa | 0V | 00:00:00 | 00:00:00 | 00:00:00 | |
| PU1XMG-16 | 2026-09-02 11:47:33 | -22.82516 | -43.08477 | 106° | 115km/h | 6319m | 7.8m/s | -13.7°C | 2.2% | 466.2hPa | 0V | 00:00:00 | 00:00:00 | 00:00:00 | |
| PU1XMG-16 | 2026-09-02 11:47:27 | -22.82461 | -43.08662 | 112° | 126km/h | 6279m | 6.7m/s | -13.5°C | 2.5% | 468.4hPa | 0V | 00:00:00 | 00:00:00 | 00:00:00 | |
| PU1XMG-16 | 2026-09-02 11:47:22 | -22.82399 | -43.08850 | 112° | 122km/h | 6242m | 5.1m/s | -13.4°C | 3.2% | 470.6hPa | 0V | 00:00:00 | 00:00:00 | 00:00:00 | |
| PU1XMG-16 | 2026-09-02 11:47:15 | -22.82334 | -43.09032 | 113° | 130km/h | 6200m | 5.3m/s | -13.5°C | 4.3% | 473.2hPa | 0V | 00:00:00 | 00:00:00 | 00:00:00 | |
| PU1XMG-16 | 2026-09-02 11:47:10 | -22.82258 | -43.09227 | 114° | 137km/h | 6157m | 8.2m/s | -13.5°C | 6.5% | 475.8hPa | 0V | 00:00:00 | 00:00:00 | 00:00:00 | |
| PU1XMG-16 | 2026-09-02 11:47:03 | -22.82179 | -43.09431 | 111° | 133km/h | 6121m | 5.2m/s | -13.8°C | 9.0% | 478.1hPa | 0V | 00:00:00 | 00:00:00 | 00:00:00 | |
| PU1XMG-16 | 2026-09-02 11:46:58 | -22.82090 | -43.09635 | 118° | 130km/h | 6082m | 4.1m/s | -13.5°C | 9.3% | 480.7hPa | 0V | 00:00:00 | 00:00:00 | 00:00:00 | |
| PU1XMG-16 | 2026-09-02 11:46:52 | -22.82014 | -43.09800 | 114° | 144km/h | 6058m | 4.3m/s | -13.3°C | 9.7% | 482.2hPa | 0V | 00:00:00 | 00:00:00 | 00:00:00 | |
| PU1XMG-16 | 2026-09-02 11:46:47 | -22.81933 | -43.09981 | 120° | 141km/h | 6027m | 5.7m/s | -13.1°C | 9.7% | 484.0hPa | 0V | 00:00:00 | 00:00:00 | 00:00:00 | |
| PU1XMG-16 | 2026-09-02 11:46:43 | -22.81853 | -43.10144 | 116° | 139km/h | 6000m | 4.8m/s | -12.8°C | 8.9% | 486.0hPa | 0V | 00:00:00 | 00:00:00 | 00:00:00 | |
| PU1XMG-16 | 2026-09-02 11:46:36 | -22.81769 | -43.10346 | 119° | 135km/h | 5962m | 6.6m/s | -12.5°C | 8.6% | 488.2hPa | 0V | 00:00:00 | 00:00:00 | 00:00:00 | |
| PU1XMG-16 | 2026-09-02 11:46:30 | -22.81678 | -43.10541 | 116° | 133km/h | 5921m | 7.9m/s | -12.1°C | 6.4% | 490.9hPa | 0V | 00:00:00 | 00:00:00 | 00:00:00 | |
| PU1XMG-16 | 2026-09-02 11:46:24 | -22.81590 | -43.10732 | 118° | 131km/h | 5883m | 7.0m/s | -11.9°C | 4.5% | 493.3hPa | 0V | 00:00:00 | 00:00:00 | 00:00:00 | |
| PU1XMG-16 | 2026-09-02 11:46:18 | -22.81501 | -43.10917 | 116° | 135km/h | 5849m | 6.6m/s | -11.7°C | 3.2% | 495.6hPa | 0V | 00:00:00 | 00:00:00 | 00:00:00 | |
| PU1XMG-16 | 2026-09-02 11:46:13 | -22.81432 | -43.11082 | 117° | 133km/h | 5815m | 6.3m/s | -11.4°C | 3.0% | 497.8hPa | 0V | 00:00:00 | 00:00:00 | 00:00:00 | |
| PU1XMG-16 | 2026-09-02 11:46:07 | -22.81361 | -43.11269 | 114° | 122km/h | 5773m | 9.1m/s | -11.1°C | 2.7% | 500.5hPa | 0V | 00:00:00 | 00:00:00 | 00:00:00 | |
| PU1XMG-16 | 2026-09-02 11:46:02 | -22.81295 | -43.11427 | 115° | 117km/h | 5738m | 5.0m/s | -10.8°C | 2.5% | 502.5hPa | 0V | 00:00:00 | 00:00:00 | 00:00:00 | |
| PU1XMG-16 | 2026-09-02 11:45:57 | -22.81224 | -43.11617 | 111° | 128km/h | 5699m | 7.7m/s | -10.4°C | 2.3% | 505.1hPa | 0V | 00:00:00 | 00:00:00 | 00:00:00 | |
| PU1XMG-16 | 2026-09-02 11:45:51 | -22.81164 | -43.11779 | 111° | 137km/h | 5670m | 5.6m/s | -10.2°C | 2.2% | 507.0hPa | 0V | 00:00:00 | 00:00:00 | 00:00:00 | |
| PU1XMG-16 | 2026-09-02 11:45:47 | -22.81113 | -43.11939 | 111° | 115km/h | 5641m | 5.5m/s | -9.9°C | 2.0% | 509.1hPa | 0V | 00:00:00 | 00:00:00 | 00:00:00 | |
| PU1XMG-16 | 2026-09-02 11:45:42 | -22.81058 | -43.12091 | 113° | 113km/h | 5605m | 5.4m/s | -9.6°C | 1.9% | 511.5hPa | 0V | 00:00:00 | 00:00:00 | 00:00:00 | |
| PU1XMG-16 | 2026-09-02 11:45:35 | -22.80999 | -43.12276 | 108° | 119km/h | 5567m | 8.3m/s | -9.5°C | 1.8% | 514.0hPa | 0V | 00:00:00 | 00:00:00 | 00:00:00 | |
| PU1XMG-16 | 2026-09-02 11:45:30 | -22.80959 | -43.12466 | 102° | 117km/h | 5526m | 7.1m/s | -9.5°C | 2.4% | 516.7hPa | 0V | 00:00:00 | 00:00:00 | 00:00:00 | |
| PU1XMG-16 | 2026-09-02 11:45:25 | -22.80923 | -43.12623 | 112° | 117km/h | 5491m | 7.4m/s | -9.5°C | 3.3% | 519.1hPa | 0V | 00:00:00 | 00:00:00 | 00:00:00 | |
| PU1XMG-16 | 2026-09-02 11:45:19 | -22.80877 | -43.12782 | 106° | 128km/h | 5455m | 7.2m/s | -9.3°C | 3.8% | 521.4hPa | 0V | 00:00:00 | 00:00:00 | 00:00:00 | |
| PU1XMG-16 | 2026-09-02 11:45:14 | -22.80834 | -43.12941 | 108° | 122km/h | 5421m | 6.2m/s | -9.0°C | 4.5% | 523.8hPa | 0V | 00:00:00 | 00:00:00 | 00:00:00 | |
| PU1XMG-16 | 2026-09-02 11:45:08 | -22.80782 | -43.13136 | 109° | 131km/h | 5384m | 6.7m/s | -8.6°C | 4.4% | 526.3hPa | 0V | 00:00:00 | 00:00:00 | 00:00:00 | |
| PU1XMG-16 | 2026-09-02 11:45:03 | -22.80726 | -43.13294 | 110° | 124km/h | 5353m | 6.5m/s | -8.4°C | 4.8% | 528.5hPa | 0V | 00:00:00 | 00:00:00 | 00:00:00 | |
| PU1XMG-16 | 2026-09-02 11:44:58 | -22.80676 | -43.13451 | 110° | 110km/h | 5322m | 4.6m/s | -8.1°C | 5.1% | 530.5hPa | 0V | 00:00:00 | 00:00:00 | 00:00:00 | |
| PU1XMG-16 | 2026-09-02 11:44:52 | -22.80626 | -43.13635 | 103° | 131km/h | 5289m | 5.5m/s | -7.8°C | 4.9% | 532.9hPa | 0V | 00:00:00 | 00:00:00 | 00:00:00 | |
| PU1XMG-16 | 2026-09-02 11:44:47 | -22.80581 | -43.13801 | 113° | 122km/h | 5257m | 3.0m/s | -7.5°C | 4.7% | 534.9hPa | 0V | 00:00:00 | 00:00:00 | 00:00:00 | |
| PU1XMG-16 | 2026-09-02 11:44:41 | -22.80521 | -43.14008 | 102° | 126km/h | 5219m | 4.5m/s | -7.4°C | 6.4% | 537.3hPa | 0V | 00:00:00 | 00:00:00 | 00:00:00 | |
| PU1XMG-16 | 2026-09-02 11:44:36 | -22.80477 | -43.14164 | 113° | 124km/h | 5191m | 7.9m/s | -7.3°C | 6.5% | 539.3hPa | 0V | 00:00:00 | 00:00:00 | 00:00:00 | |
| PU1XMG-16 | 2026-09-02 11:44:30 | -22.80426 | -43.14370 | 104° | 126km/h | 5152m | 5.3m/s | -7.3°C | 9.9% | 542.4hPa | 0V | 00:00:00 | 00:00:00 | 00:00:00 | |
| PU1XMG-16 | 2026-09-02 11:44:25 | -22.80390 | -43.14541 | 106° | 130km/h | 5121m | 5.3m/s | -7.6°C | 16.2% | 544.3hPa | 0V | 00:00:00 | 00:00:00 | 00:00:00 | |
| PU1XMG-16 | 2026-09-02 11:44:19 | -22.80338 | -43.14730 | 109° | 120km/h | 5084m | 4.0m/s | -7.5°C | 17.9% | 546.9hPa | 0V | 00:00:00 | 00:00:00 | 00:00:00 | |
| PU1XMG-16 | 2026-09-02 11:44:15 | -22.80302 | -43.14891 | 100° | 131km/h | 5054m | 4.1m/s | -7.3°C | 17.1% | 548.9hPa | 0V | 00:00:00 | 00:00:00 | 00:00:00 | |
| PU1XMG-16 | 2026-09-02 11:44:08 | -22.80263 | -43.15101 | 105° | 128km/h | 5022m | 6.6m/s | -7.2°C | 17.5% | 551.3hPa | 0V | 00:00:00 | 00:00:00 | 00:00:00 | |
| PU1XMG-16 | 2026-09-02 11:44:03 | -22.80238 | -43.15262 | 104° | 104km/h | 4994m | 5.1m/s | -7.0°C | 18.3% | 553.4hPa | 0V | 00:00:00 | 00:00:00 | 00:00:00 | |
| PU1XMG-16 | 2026-09-02 11:43:58 | -22.80179 | -43.15449 | 106° | 133km/h | 4958m | 6.2m/s | -7.0°C | 30.6% | 556.1hPa | 0V | 00:00:00 | 00:00:00 | 00:00:00 | |
| PU1XMG-16 | 2026-09-02 11:43:51 | -22.80141 | -43.15639 | 108° | 108km/h | 4920m | 5.5m/s | -6.9°C | 33.7% | 558.5hPa | 0V | 00:00:00 | 00:00:00 | 00:00:00 | |
| PU1XMG-16 | 2026-09-02 11:43:46 | -22.80098 | -43.15793 | 106° | 122km/h | 4892m | 7.0m/s | -6.7°C | 36.1% | 560.5hPa | 0V | 00:00:00 | 00:00:00 | 00:00:00 | |
| PU1XMG-16 | 2026-09-02 11:43:41 | -22.80063 | -43.15952 | 107° | 120km/h | 4860m | 4.0m/s | -6.4°C | 37.8% | 562.7hPa | 0V | 00:00:00 | 00:00:00 | 00:00:00 | |
| PU1XMG-16 | 2026-09-02 11:43:35 | -22.80011 | -43.16127 | 107° | 113km/h | 4825m | 7.1m/s | -6.3°C | 42.1% | 565.3hPa | 0V | 00:00:00 | 00:00:00 | 00:00:00 | |
| PU1XMG-16 | 2026-09-02 11:43:30 | -22.79971 | -43.16278 | 109° | 124km/h | 4793m | 5.8m/s | -6.0°C | 42.8% | 567.7hPa | 0V | 00:00:00 | 00:00:00 | 00:00:00 | |
| PU1XMG-16 | 2026-09-02 11:43:25 | -22.79918 | -43.16432 | 110° | 113km/h | 4763m | 6.1m/s | -5.7°C | 43.4% | 569.9hPa | 0V | 00:00:00 | 00:00:00 | 00:00:00 | |
| PU1XMG-16 | 2026-09-02 11:43:20 | -22.79869 | -43.16580 | 114° | 110km/h | 4733m | 5.7m/s | -5.4°C | 43.7% | 572.0hPa | 0V | 00:00:00 | 00:00:00 | 00:00:00 | |
| PU1XMG-16 | 2026-09-02 11:43:14 | -22.79817 | -43.16749 | 110° | 115km/h | 4698m | 6.4m/s | -5.2°C | 45.0% | 574.6hPa | 0V | 00:00:00 | 00:00:00 | 00:00:00 | |
| PU1XMG-16 | 2026-09-02 11:43:09 | -22.79759 | -43.16917 | 113° | 108km/h | 4662m | 6.5m/s | -4.8°C | 44.1% | 577.3hPa | 0V | 00:00:00 | 00:00:00 | 00:00:00 | |
| PU1XMG-16 | 2026-09-02 11:43:02 | -22.79702 | -43.17085 | 112° | 119km/h | 4624m | 5.1m/s | -4.5°C | 43.3% | 580.0hPa | 0V | 00:00:00 | 00:00:00 | 00:00:00 | |
| PU1XMG-16 | 2026-09-02 11:42:56 | -22.79642 | -43.17265 | 107° | 115km/h | 4589m | 6.8m/s | -4.3°C | 44.3% | 582.6hPa | 0V | 00:00:00 | 00:00:00 | 00:00:00 | |
| PU1XMG-16 | 2026-09-02 11:42:50 | -22.79594 | -43.17436 | 111° | 113km/h | 4546m | 4.9m/s | -3.9°C | 43.8% | 585.7hPa | 0V | 00:00:00 | 00:00:00 | 00:00:00 | |
| PU1XMG-16 | 2026-09-02 11:42:44 | -22.79532 | -43.17617 | 110° | 120km/h | 4510m | 6.2m/s | -3.6°C | 46.0% | 588.3hPa | 0V | 00:00:00 | 00:00:00 | 00:00:00 | |
| PU1XMG-16 | 2026-09-02 11:42:39 | -22.79489 | -43.17756 | 105° | 102km/h | 4481m | 7.6m/s | -3.4°C | 46.1% | 590.5hPa | 0V | 00:00:00 | 00:00:00 | 00:00:00 | |
| PU1XMG-16 | 2026-09-02 11:42:33 | -22.79447 | -43.17918 | 113° | 99km/h | 4445m | 4.7m/s | -3.1°C | 44.8% | 593.3hPa | 0V | 00:00:00 | 00:00:00 | 00:00:00 | |
| PU1XMG-16 | 2026-09-02 11:42:27 | -22.79396 | -43.18082 | 109° | 108km/h | 4407m | 7.7m/s | -2.9°C | 43.5% | 596.1hPa | 0V | 00:00:00 | 00:00:00 | 00:00:00 | |
| PU1XMG-16 | 2026-09-02 11:42:21 | -22.79350 | -43.18256 | 106° | 115km/h | 4369m | 7.7m/s | -2.7°C | 28.5% | 598.8hPa | 0V | 00:00:00 | 00:00:00 | 00:00:00 | |
| PU1XMG-16 | 2026-09-02 11:42:16 | -22.79318 | -43.18397 | 106° | 100km/h | 4336m | 6.4m/s | -2.5°C | 29.7% | 601.4hPa | 0V | 00:00:00 | 00:00:00 | 00:00:00 | |
| PU1XMG-16 | 2026-09-02 11:42:10 | -22.79272 | -43.18566 | 108° | 100km/h | 4296m | 4.8m/s | -2.4°C | 32.9% | 604.3hPa | 0V | 00:00:00 | 00:00:00 | 00:00:00 | |
| PU1XMG-16 | 2026-09-02 11:42:05 | -22.79239 | -43.18705 | 102° | 110km/h | 4268m | 6.4m/s | -2.3°C | 34.0% | 606.6hPa | 0V | 00:00:00 | 00:00:00 | 00:00:00 | |
| PU1XMG-16 | 2026-09-02 11:41:59 | -22.79210 | -43.18874 | 98° | 106km/h | 4230m | 4.5m/s | -1.9°C | 25.7% | 609.7hPa | 0V | 00:00:00 | 00:00:00 | 00:00:00 | |
| PU1XMG-16 | 2026-09-02 11:41:54 | -22.79188 | -43.19009 | 101° | 99km/h | 4196m | 9.7m/s | -1.7°C | 22.0% | 612.1hPa | 0V | 00:00:00 | 00:00:00 | 00:00:00 | |
| PU1XMG-16 | 2026-09-02 11:41:48 | -22.79151 | -43.19168 | 104° | 93km/h | 4157m | 6.6m/s | -1.5°C | 19.3% | 615.0hPa | 0V | 00:00:00 | 00:00:00 | 00:00:00 | |
| PU1XMG-16 | 2026-09-02 11:41:38 | -22.79102 | -43.19422 | 101° | 88km/h | 4099m | 6.2m/s | -1.1°C | 15.5% | 619.8hPa | 0V | 00:00:00 | 00:00:00 | 00:00:00 | |
| PU1XMG-16 | 2026-09-02 11:41:32 | -22.79075 | -43.19573 | 103° | 93km/h | 4060m | 7.8m/s | -0.9°C | 12.5% | 622.7hPa | 0V | 00:00:00 | 00:00:00 | 00:00:00 | |
| PU1XMG-16 | 2026-09-02 11:41:19 | -22.79008 | -43.19867 | 101° | 82km/h | 3976m | 6.0m/s | -0.2°C | 11.1% | 629.0hPa | 0V | 00:00:00 | 00:00:00 | 00:00:00 | |
| PU1XMG-16 | 2026-09-02 11:41:14 | -22.78979 | -43.19985 | 109° | 91km/h | 3943m | 6.4m/s | 0.1°C | 11.0% | 631.5hPa | 0V | 00:00:00 | 00:00:00 | 00:00:00 | |
| PU1XMG-16 | 2026-09-02 11:41:08 | -22.78949 | -43.20158 | 102° | 82km/h | 3901m | 4.6m/s | 0.5°C | 11.0% | 635.0hPa | 0V | 00:00:00 | 00:00:00 | 00:00:00 | |
| PU1XMG-16 | 2026-09-02 11:41:02 | -22.78938 | -43.20266 | 99° | 84km/h | 3870m | 6.9m/s | 0.8°C | 10.8% | 637.5hPa | 0V | 00:00:00 | 00:00:00 | 00:00:00 | |
| PU1XMG-16 | 2026-09-02 11:40:57 | -22.78921 | -43.20384 | 100° | 89km/h | 3835m | 6.6m/s | 1.1°C | 10.4% | 640.3hPa | 0V | 00:00:00 | 00:00:00 | 00:00:00 | |
| PU1XMG-16 | 2026-09-02 11:40:51 | -22.78905 | -43.20532 | 99° | 97km/h | 3797m | 6.9m/s | 1.4°C | 9.9% | 643.5hPa | 0V | 00:00:00 | 00:00:00 | 00:00:00 | |
| PU1XMG-16 | 2026-09-02 11:40:45 | -22.78885 | -43.20660 | 103° | 75km/h | 3759m | 6.2m/s | 1.7°C | 9.0% | 646.6hPa | 0V | 00:00:00 | 00:00:00 | 00:00:00 | |
| PU1XMG-16 | 2026-09-02 11:40:39 | -22.78870 | -43.20797 | 88° | 91km/h | 3725m | 8.0m/s | 1.9°C | 8.5% | 649.1hPa | 0V | 00:00:00 | 00:00:00 | 00:00:00 | |
| PU1XMG-16 | 2026-09-02 11:40:33 | -22.78866 | -43.20939 | 97° | 89km/h | 3680m | 9.9m/s | 2.3°C | 8.0% | 652.7hPa | 0V | 00:00:00 | 00:00:00 | 00:00:00 | |
| PU1XMG-16 | 2026-09-02 11:40:28 | -22.78845 | -43.21061 | 96° | 64km/h | 3637m | 5.7m/s | 2.6°C | 7.5% | 656.3hPa | 0V | 00:00:00 | 00:00:00 | 00:00:00 | |
| PU1XMG-16 | 2026-09-02 11:40:22 | -22.78836 | -43.21156 | 99° | 77km/h | 3607m | 5.6m/s | 2.9°C | 7.3% | 658.8hPa | 0V | 00:00:00 | 00:00:00 | 00:00:00 | |
| PU1XMG-16 | 2026-09-02 11:40:16 | -22.78828 | -43.21285 | 101° | 80km/h | 3570m | 4.4m/s | 3.2°C | 6.8% | 661.9hPa | 0V | 00:00:00 | 00:00:00 | 00:00:00 | |
| PU1XMG-16 | 2026-09-02 11:40:11 | -22.78821 | -43.21387 | 89° | 68km/h | 3539m | 7.6m/s | 3.4°C | 6.6% | 664.2hPa | 0V | 00:00:00 | 00:00:00 | 00:00:00 | |
| PU1XMG-16 | 2026-09-02 11:40:06 | -22.78810 | -43.21486 | 97° | 80km/h | 3506m | 3.3m/s | 3.5°C | 5.9% | 666.8hPa | 0V | 00:00:00 | 00:00:00 | 00:00:00 | |
| PU1XMG-16 | 2026-09-02 11:40:01 | -22.78802 | -43.21586 | 89° | 66km/h | 3473m | 7.1m/s | 3.5°C | 5.6% | 669.8hPa | 0V | 00:00:00 | 00:00:00 | 00:00:00 | |
| PU1XMG-16 | 2026-09-02 11:39:55 | -22.78806 | -43.21702 | 91° | 68km/h | 3431m | 5.8m/s | 3.1°C | 18.1% | 673.2hPa | 0V | 00:00:00 | 00:00:00 | 00:00:00 | |
| PU1XMG-16 | 2026-09-02 11:39:50 | -22.78817 | -43.21806 | 82° | 60km/h | 3393m | 5.5m/s | 2.6°C | 48.5% | 676.4hPa | 0V | 00:00:00 | 00:00:00 | 00:00:00 | |
| PU1XMG-16 | 2026-09-02 11:39:44 | -22.78826 | -43.21901 | 89° | 73km/h | 3360m | 7.8m/s | 2.3°C | 68.0% | 679.1hPa | 0V | 00:00:00 | 00:00:00 | 00:00:00 | |
| PU1XMG-16 | 2026-09-02 11:39:39 | -22.78828 | -43.21994 | 88° | 71km/h | 3330m | 5.9m/s | 2.4°C | 66.4% | 681.7hPa | 0V | 00:00:00 | 00:00:00 | 00:00:00 | |
| PU1XMG-16 | 2026-09-02 11:39:33 | -22.78829 | -43.22100 | 89° | 64km/h | 3291m | 6.3m/s | 2.3°C | 72.6% | 684.8hPa | 0V | 00:00:00 | 00:00:00 | 00:00:00 | |
| PU1XMG-16 | 2026-09-02 11:39:28 | -22.78829 | -43.22180 | 84° | 57km/h | 3261m | 6.2m/s | 2.5°C | 69.3% | 687.5hPa | 0V | 00:00:00 | 00:00:00 | 00:00:00 | |
| PU1XMG-16 | 2026-09-02 11:39:23 | -22.78830 | -43.22260 | 95° | 51km/h | 3234m | 7.1m/s | 2.7°C | 69.6% | 689.9hPa | 0V | 00:00:00 | 00:00:00 | 00:00:00 | |
| PU1XMG-16 | 2026-09-02 11:39:18 | -22.78836 | -43.22335 | 88° | 68km/h | 3203m | 6.8m/s | 2.9°C | 66.1% | 692.5hPa | 0V | 00:00:00 | 00:00:00 | 00:00:00 | |
| PU1XMG-16 | 2026-09-02 11:39:12 | -22.78836 | -43.22436 | 90° | 55km/h | 3164m | 7.0m/s | 3.2°C | 62.1% | 696.0hPa | 0V | 00:00:00 | 00:00:00 | 00:00:00 | |
| PU1XMG-16 | 2026-09-02 11:39:08 | -22.78842 | -43.22518 | 82° | 58km/h | 3131m | 7.0m/s | 3.4°C | 60.8% | 698.6hPa | 0V | 00:00:00 | 00:00:00 | 00:00:00 | |
| PU1XMG-16 | 2026-09-02 11:39:01 | -22.78852 | -43.22608 | 86° | 58km/h | 3094m | 6.5m/s | 3.8°C | 59.4% | 702.0hPa | 0V | 00:00:00 | 00:00:00 | 00:00:00 | |
| PU1XMG-16 | 2026-09-02 11:38:56 | -22.78842 | -43.22677 | 102° | 49km/h | 3064m | 7.9m/s | 4.0°C | 53.0% | 704.5hPa | 0V | 00:00:00 | 00:00:00 | 00:00:00 | |
| PU1XMG-16 | 2026-09-02 11:38:50 | -22.78849 | -43.22763 | 86° | 49km/h | 3018m | 8.9m/s | 4.3°C | 45.8% | 708.1hPa | 0V | 00:00:00 | 00:00:00 | 00:00:00 | |
| PU1XMG-16 | 2026-09-02 11:38:45 | -22.78861 | -43.22827 | 77° | 55km/h | 2989m | 5.0m/s | 4.6°C | 41.1% | 710.9hPa | 0V | 00:00:00 | 00:00:00 | 00:00:00 | |
| PU1XMG-16 | 2026-09-02 11:38:39 | -22.78865 | -43.22911 | 89° | 44km/h | 2955m | 8.1m/s | 4.4°C | 65.4% | 714.0hPa | 0V | 00:00:00 | 00:00:00 | 00:00:00 | |
| PU1XMG-16 | 2026-09-02 11:38:34 | -22.78871 | -43.22970 | 86° | 38km/h | 2919m | 5.6m/s | 4.6°C | 69.1% | 716.9hPa | 0V | 00:00:00 | 00:00:00 | 00:00:00 | |
| PU1XMG-16 | 2026-09-02 11:38:28 | -22.78878 | -43.23043 | 92° | 42km/h | 2883m | 4.8m/s | 4.6°C | 71.9% | 720.2hPa | 0V | 00:00:00 | 00:00:00 | 00:00:00 | |
| PU1XMG-16 | 2026-09-02 11:38:25 | -22.78883 | -43.23103 | 89° | 49km/h | 2854m | 5.8m/s | 4.8°C | 71.3% | 722.8hPa | 0V | 00:00:00 | 00:00:00 | 00:00:00 | |
| PU1XMG-16 | 2026-09-02 11:38:17 | -22.78890 | -43.23174 | 87° | 46km/h | 2816m | 6.1m/s | 5.0°C | 71.8% | 726.2hPa | 0V | 00:00:00 | 00:00:00 | 00:00:00 | |
| PU1XMG-16 | 2026-09-02 11:38:12 | -22.78898 | -43.23232 | 82° | 44km/h | 2783m | 6.4m/s | 5.1°C | 66.6% | 729.0hPa | 0V | 00:00:00 | 00:00:00 | 00:00:00 | |
| PU1XMG-16 | 2026-09-02 11:38:06 | -22.78902 | -43.23295 | 76° | 42km/h | 2745m | 7.0m/s | 5.2°C | 64.4% | 732.6hPa | 0V | 00:00:00 | 00:00:00 | 00:00:00 | |
| PU1XMG-16 | 2026-09-02 11:38:00 | -22.78927 | -43.23359 | 68° | 44km/h | 2706m | 5.8m/s | 5.3°C | 66.0% | 736.2hPa | 0V | 00:00:00 | 00:00:00 | 00:00:00 | |
| PU1XMG-16 | 2026-09-02 11:37:55 | -22.78940 | -43.23406 | 72° | 29km/h | 2678m | 7.3m/s | 5.4°C | 67.1% | 738.8hPa | 0V | 00:00:00 | 00:00:00 | 00:00:00 | |
| PU1XMG-16 | 2026-09-02 11:37:49 | -22.78951 | -43.23456 | 73° | 26km/h | 2639m | 5.8m/s | 5.3°C | 75.9% | 742.2hPa | 0V | 00:00:00 | 00:00:00 | 00:00:00 | |
| PU1XMG-16 | 2026-09-02 11:37:44 | -22.78964 | -43.23496 | 85° | 37km/h | 2606m | 6.7m/s | 5.2°C | 83.9% | 745.2hPa | 0V | 00:00:00 | 00:00:00 | 00:00:00 | |
| PU1XMG-16 | 2026-09-02 11:37:38 | -22.78974 | -43.23537 | 89° | 20km/h | 2569m | 6.5m/s | 5.1°C | 87.2% | 748.6hPa | 0V | 00:00:00 | 00:00:00 | 00:00:00 | |
| PU1XMG-16 | 2026-09-02 11:37:33 | -22.78979 | -43.23571 | 66° | 29km/h | 2541m | 7.7m/s | 5.1°C | 88.4% | 751.1hPa | 0V | 00:00:00 | 00:00:00 | 00:00:00 | |
| PU1XMG-16 | 2026-09-02 11:37:27 | -22.79000 | -43.23621 | 54° | 35km/h | 2499m | 4.8m/s | 5.0°C | 90.8% | 754.8hPa | 0V | 00:00:00 | 00:00:00 | 00:00:00 | |
| PU1XMG-16 | 2026-09-02 11:37:22 | -22.79014 | -43.23656 | 67° | 27km/h | 2466m | 9.2m/s | 4.3°C | 99.8% | 757.7hPa | 0V | 00:00:00 | 00:00:00 | 00:00:00 | |
| PU1XMG-16 | 2026-09-02 11:37:16 | -22.79043 | -43.23697 | 52° | 22km/h | 2421m | 7.7m/s | 4.7°C | 0% | 761.8hPa | 0V | 00:00:00 | 00:00:00 | 00:00:00 | |
| PU1XMG-16 | 2026-09-02 11:37:11 | -22.79052 | -43.23722 | 71° | 27km/h | 2388m | 4.1m/s | 4.9°C | 99.8% | 765.1hPa | 0V | 00:00:00 | 00:00:00 | 00:00:00 | |
| PU1XMG-16 | 2026-09-02 11:37:06 | -22.79069 | -43.23747 | 42° | 26km/h | 2352m | 9.0m/s | 5.1°C | 98.7% | 768.6hPa | 0V | 00:00:00 | 00:00:00 | 00:00:00 | |
| PU1XMG-16 | 2026-09-02 11:37:01 | -22.79087 | -43.23779 | 68° | 22km/h | 2319m | 6.2m/s | 5.4°C | 97.5% | 771.7hPa | 0V | 00:00:00 | 00:00:00 | 00:00:00 | |
| PU1XMG-16 | 2026-09-02 11:36:55 | -22.79103 | -43.23812 | 60° | 20km/h | 2282m | 7.3m/s | 5.8°C | 95.8% | 775.2hPa | 0V | 00:00:00 | 00:00:00 | 00:00:00 | |
| PU1XMG-16 | 2026-09-02 11:36:49 | -22.79125 | -43.23841 | 64° | 20km/h | 2242m | 5.2m/s | 6.1°C | 93.8% | 779.1hPa | 0V | 00:00:00 | 00:00:00 | 00:00:00 | |
| PU1XMG-16 | 2026-09-02 11:36:44 | -22.79146 | -43.23873 | 50° | 26km/h | 2205m | 6.9m/s | 6.4°C | 92.1% | 782.5hPa | 0V | 00:00:00 | 00:00:00 | 00:00:00 | |
| PU1XMG-16 | 2026-09-02 11:36:39 | -22.79171 | -43.23903 | 62° | 26km/h | 2176m | 5.6m/s | 6.5°C | 92.0% | 785.3hPa | 0V | 00:00:00 | 00:00:00 | 00:00:00 | |
| PU1XMG-16 | 2026-09-02 11:36:32 | -22.79196 | -43.23919 | 17° | 24km/h | 2143m | 6.3m/s | 6.8°C | 90.4% | 788.3hPa | 0V | 00:00:00 | 00:00:00 | 00:00:00 | |
| PU1XMG-16 | 2026-09-02 11:36:27 | -22.79214 | -43.23937 | 61° | 27km/h | 2107m | 8.1m/s | 7.0°C | 89.7% | 791.6hPa | 0V | 00:00:00 | 00:00:00 | 00:00:00 | |
| PU1XMG-16 | 2026-09-02 11:36:22 | -22.79242 | -43.23962 | 34° | 22km/h | 2080m | 3.8m/s | 7.2°C | 89.9% | 794.3hPa | 0V | 00:00:00 | 00:00:00 | 00:00:00 | |
| PU1XMG-16 | 2026-09-02 11:36:17 | -22.79272 | -43.23988 | 33° | 22km/h | 2042m | 5.8m/s | 7.4°C | 86.0% | 798.0hPa | 0V | 00:00:00 | 00:00:00 | 00:00:00 | |
| PU1XMG-16 | 2026-09-02 11:36:11 | -22.79292 | -43.24012 | 48° | 27km/h | 2012m | 8.4m/s | 7.6°C | 83.8% | 800.6hPa | 0V | 00:00:00 | 00:00:00 | 00:00:00 | |
| PU1XMG-16 | 2026-09-02 11:36:06 | -22.79321 | -43.24037 | 45° | 27km/h | 1982m | 5.5m/s | 7.9°C | 83.3% | 803.7hPa | 0V | 00:00:00 | 00:00:00 | 00:00:00 | |
| PU1XMG-16 | 2026-09-02 11:36:01 | -22.79349 | -43.24062 | 46° | 27km/h | 1949m | 5.7m/s | 8.1°C | 84.9% | 807.1hPa | 0V | 00:00:00 | 00:00:00 | 00:00:00 | |
| PU1XMG-16 | 2026-09-02 11:35:55 | -22.79375 | -43.24079 | 33° | 29km/h | 1919m | 5.3m/s | 8.3°C | 85.1% | 810.1hPa | 0V | 00:00:00 | 00:00:00 | 00:00:00 | |
| PU1XMG-16 | 2026-09-02 11:35:49 | -22.79403 | -43.24107 | 45° | 29km/h | 1881m | 5.9m/s | 8.3°C | 78.7% | 813.7hPa | 0V | 00:00:00 | 00:00:00 | 00:00:00 | |
| PU1XMG-16 | 2026-09-02 11:35:43 | -22.79419 | -43.24138 | 45° | 22km/h | 1846m | 6.3m/s | 8.4°C | 79.8% | 817.1hPa | 0V | 00:00:00 | 00:00:00 | 00:00:00 | |
| PU1XMG-16 | 2026-09-02 11:35:38 | -22.79442 | -43.24159 | 36° | 22km/h | 1814m | 6.2m/s | 8.1°C | 88.6% | 820.3hPa | 0V | 00:00:00 | 00:00:00 | 00:00:00 | |
| PU1XMG-16 | 2026-09-02 11:35:32 | -22.79469 | -43.24177 | 22° | 18km/h | 1777m | 7.3m/s | 8.4°C | 87.9% | 824.0hPa | 0V | 00:00:00 | 00:00:00 | 00:00:00 | |
| PU1XMG-16 | 2026-09-02 11:35:26 | -22.79517 | -43.24195 | 38° | 33km/h | 1739m | 4.4m/s | 8.5°C | 87.0% | 827.6hPa | 0V | 00:00:00 | 00:00:00 | 00:00:00 | |
| PU1XMG-16 | 2026-09-02 11:35:20 | -22.79553 | -43.24214 | 20° | 35km/h | 1708m | 5.8m/s | 8.7°C | 86.3% | 830.8hPa | 0V | 00:00:00 | 00:00:00 | 00:00:00 | |
| PU1XMG-16 | 2026-09-02 11:35:15 | -22.79585 | -43.24231 | 26° | 24km/h | 1680m | 7.2m/s | 8.9°C | 84.7% | 833.6hPa | 0V | 00:00:00 | 00:00:00 | 00:00:00 | |
| PU1XMG-16 | 2026-09-02 11:35:10 | -22.79626 | -43.24248 | 3° | 33km/h | 1646m | 6.0m/s | 9.2°C | 82.6% | 837.2hPa | 0V | 00:00:00 | 00:00:00 | 00:00:00 | |
| PU1XMG-16 | 2026-09-02 11:35:04 | -22.79669 | -43.24260 | 35° | 27km/h | 1619m | 4.6m/s | 9.4°C | 80.9% | 839.9hPa | 0V | 00:00:00 | 00:00:00 | 00:00:00 | |
| PU1XMG-16 | 2026-09-02 11:34:58 | -22.79716 | -43.24275 | 20° | 38km/h | 1583m | 6.5m/s | 9.8°C | 76.4% | 843.4hPa | 0V | 00:00:00 | 00:00:00 | 00:00:00 | |
| PU1XMG-16 | 2026-09-02 11:34:53 | -22.79755 | -43.24285 | 15° | 31km/h | 1557m | 5.6m/s | 10.0°C | 71.4% | 846.1hPa | 0V | 00:00:00 | 00:00:00 | 00:00:00 | |
| PU1XMG-16 | 2026-09-02 11:34:49 | -22.79791 | -43.24291 | 11° | 35km/h | 1528m | 4.8m/s | 10.0°C | 78.7% | 849.0hPa | 0V | 00:00:00 | 00:00:00 | 00:00:00 | |
| PU1XMG-16 | 2026-09-02 11:34:42 | -22.79836 | -43.24310 | 16° | 31km/h | 1498m | 5.6m/s | 9.9°C | 84.0% | 852.1hPa | 0V | 00:00:00 | 00:00:00 | 00:00:00 | |
| PU1XMG-16 | 2026-09-02 11:34:36 | -22.79880 | -43.24323 | 4° | 31km/h | 1467m | 5.7m/s | 10.1°C | 84.7% | 855.2hPa | 0V | 00:00:00 | 00:00:00 | 00:00:00 | |
| PU1XMG-16 | 2026-09-02 11:34:30 | -22.79929 | -43.24326 | 350° | 31km/h | 1435m | 4.8m/s | 10.3°C | 79.7% | 858.6hPa | 0V | 00:00:00 | 00:00:00 | 00:00:00 | |
| PU1XMG-16 | 2026-09-02 11:34:25 | -22.79969 | -43.24331 | 27° | 31km/h | 1410m | 4.2m/s | 10.4°C | 83.8% | 861.3hPa | 0V | 00:00:00 | 00:00:00 | 00:00:00 | |
| PU1XMG-16 | 2026-09-02 11:34:19 | -22.80017 | -43.24340 | 14° | 26km/h | 1374m | 7.5m/s | 10.4°C | 89.9% | 864.8hPa | 0V | 00:00:00 | 00:00:00 | 00:00:00 | |
| PU1XMG-16 | 2026-09-02 11:34:13 | -22.80064 | -43.24352 | 357° | 29km/h | 1341m | 4.9m/s | 10.7°C | 88.9% | 868.1hPa | 0V | 00:00:00 | 00:00:00 | 00:00:00 | |
| PU1XMG-16 | 2026-09-02 11:34:08 | -22.80097 | -43.24360 | 21° | 37km/h | 1317m | 4.9m/s | 10.9°C | 88.6% | 870.8hPa | 0V | 00:00:00 | 00:00:00 | 00:00:00 | |
| PU1XMG-16 | 2026-09-02 11:34:03 | -22.80138 | -43.24366 | 10° | 24km/h | 1291m | 5.5m/s | 11.1°C | 88.7% | 873.4hPa | 0V | 00:00:00 | 00:00:00 | 00:00:00 | |
| PU1XMG-16 | 2026-09-02 11:33:57 | -22.80190 | -43.24383 | 17° | 42km/h | 1262m | 6.2m/s | 11.3°C | 87.2% | 876.5hPa | 0V | 00:00:00 | 00:00:00 | 00:00:00 | |
| PU1XMG-16 | 2026-09-02 11:33:53 | -22.80226 | -43.24397 | 10° | 26km/h | 1235m | 6.2m/s | 11.3°C | 91.8% | 879.4hPa | 0V | 00:00:00 | 00:00:00 | 00:00:00 | |
| PU1XMG-16 | 2026-09-02 11:33:47 | -22.80253 | -43.24407 | 10° | 24km/h | 1208m | 6.7m/s | 11.5°C | 91.6% | 882.3hPa | 0V | 00:00:00 | 00:00:00 | 00:00:00 | |
| PU1XMG-16 | 2026-09-02 11:33:42 | -22.80292 | -43.24403 | 4° | 35km/h | 1173m | 6.5m/s | 11.7°C | 91.1% | 885.7hPa | 0V | 00:00:00 | 00:00:00 | 00:00:00 | |
| PU1XMG-16 | 2026-09-02 11:33:36 | -22.80335 | -43.24417 | 16° | 29km/h | 1140m | 6.5m/s | 11.9°C | 91.5% | 889.4hPa | 0V | 00:00:00 | 00:00:00 | 00:00:00 | |
| PU1XMG-16 | 2026-09-02 11:33:31 | -22.80370 | -43.24430 | 5° | 26km/h | 1112m | 4.8m/s | 12.2°C | 89.6% | 892.3hPa | 0V | 00:00:00 | 00:00:00 | 00:00:00 | |
| PU1XMG-16 | 2026-09-02 11:33:26 | -22.80402 | -43.24435 | 22° | 20km/h | 1086m | 5.1m/s | 12.5°C | 88.1% | 895.1hPa | 0V | 00:00:00 | 00:00:00 | 00:00:00 | |
| PU1XMG-16 | 2026-09-02 11:33:22 | -22.80427 | -43.24440 | 20° | 27km/h | 1060m | 5.8m/s | 12.6°C | 88.8% | 897.9hPa | 0V | 00:00:00 | 00:00:00 | 00:00:00 | |
| PU1XMG-16 | 2026-09-02 11:33:15 | -22.80474 | -43.24444 | 5° | 29km/h | 1027m | 4.1m/s | 12.8°C | 91.4% | 901.1hPa | 0V | 00:00:00 | 00:00:00 | 00:00:00 | |
| PU1XMG-16 | 2026-09-02 11:33:11 | -22.80510 | -43.24460 | 42° | 26km/h | 995m | 6.7m/s | 12.9°C | 92.5% | 904.6hPa | 0V | 00:00:00 | 00:00:00 | 00:00:00 | |
| PU1XMG-16 | 2026-09-02 11:33:06 | -22.80540 | -43.24477 | 32° | 31km/h | 969m | 8.1m/s | 13.2°C | 90.5% | 907.5hPa | 0V | 00:00:00 | 00:00:00 | 00:00:00 | |
| PU1XMG-16 | 2026-09-02 11:33:00 | -22.80569 | -43.24495 | 13° | 31km/h | 941m | 3.9m/s | 13.4°C | 90.6% | 910.5hPa | 0V | 00:00:00 | 00:00:00 | 00:00:00 | |
| PU1XMG-16 | 2026-09-02 11:32:54 | -22.80617 | -43.24508 | 18° | 20km/h | 912m | 3.1m/s | 13.6°C | 92.1% | 913.9hPa | 0V | 00:00:00 | 00:00:00 | 00:00:00 | |
| PU1XMG-16 | 2026-09-02 11:32:49 | -22.80643 | -43.24525 | 27° | 24km/h | 883m | 5.8m/s | 13.7°C | 92.7% | 916.7hPa | 0V | 00:00:00 | 00:00:00 | 00:00:00 | |
| PU1XMG-16 | 2026-09-02 11:32:43 | -22.80674 | -43.24546 | 23° | 37km/h | 853m | 5.4m/s | 14.0°C | 91.9% | 919.9hPa | 0V | 00:00:00 | 00:00:00 | 00:00:00 | |
| PU1XMG-16 | 2026-09-02 11:32:38 | -22.80708 | -43.24563 | 28° | 27km/h | 824m | 8.5m/s | 14.1°C | 94.2% | 923.1hPa | 0V | 00:00:00 | 00:00:00 | 00:00:00 | |
| PU1XMG-16 | 2026-09-02 11:32:32 | -22.80734 | -43.24581 | 71° | 18km/h | 789m | 5.9m/s | 14.4°C | 92.4% | 927.0hPa | 0V | 00:00:00 | 00:00:00 | 00:00:00 | |
| PU1XMG-16 | 2026-09-02 11:32:27 | -22.80747 | -43.24602 | 75° | 26km/h | 763m | 6.3m/s | 14.5°C | 95.6% | 930.0hPa | 0V | 00:00:00 | 00:00:00 | 00:00:00 | |
| PU1XMG-16 | 2026-09-02 11:32:21 | -22.80772 | -43.24652 | 41° | 35km/h | 735m | 8.0m/s | 14.8°C | 92.6% | 933.2hPa | 0V | 00:00:00 | 00:00:00 | 00:00:00 | |
| PU1XMG-16 | 2026-09-02 11:32:15 | -22.80799 | -43.24686 | 68° | 33km/h | 700m | 4.6m/s | 14.9°C | 0% | 937.0hPa | 0V | 00:00:00 | 00:00:00 | 00:00:00 | |
| PU1XMG-16 | 2026-09-02 11:32:10 | -22.80819 | -43.24719 | 72° | 22km/h | 671m | 6.6m/s | 15.2°C | 0% | 939.9hPa | 0V | 00:00:00 | 00:00:00 | 00:00:00 | |
| PU1XMG-16 | 2026-09-02 11:32:04 | -22.80840 | -43.24749 | 54° | 31km/h | 636m | 5.7m/s | 0°C | 0% | 943.7hPa | 0V | 00:00:00 | 00:00:00 | 00:00:00 | |
| PU1XMG-16 | 2026-09-02 11:31:58 | -22.80855 | -43.24780 | 24° | 16km/h | 602m | 8.7m/s | 0°C | 0% | 947.6hPa | 0V | 00:00:00 | 00:00:00 | 00:00:00 | |
| PU1XMG-16 | 2026-09-02 11:31:52 | -22.80877 | -43.24792 | 49° | 16km/h | 559m | 9.4m/s | 0°C | 0% | 952.1hPa | 0V | 00:00:00 | 00:00:00 | 00:00:00 | |
| PU1XMG-16 | 2026-09-02 11:31:47 | -22.80898 | -43.24817 | 61° | 26km/h | 520m | 8.4m/s | 0°C | 0% | 0hPa | 0V | 00:00:00 | 00:00:00 | 00:00:00 | |
| PU1XMG-16 | 2026-09-02 11:31:42 | -22.80908 | -43.24831 | 57° | 11km/h | 482m | 9.6m/s | 0°C | 0% | 0hPa | 0V | 00:00:00 | 00:00:00 | 00:00:00 | |
| PU1XMG-16 | 2026-09-02 11:31:36 | -22.80919 | -43.24842 | 72° | 5km/h | 438m | 7.7m/s | 0°C | 0% | 0hPa | 0V | 00:00:00 | 00:00:00 | 00:00:00 |